<?xml version="1.0" encoding="UTF-8" standalone="no" ?>
<gpx xmlns="http://www.topografix.com/GPX/1/1" xmlns:xsi="http://www.w3.org/2001/XMLSchema-instance" xsi:schemaLocation="http://www.topografix.com/GPX/1/1 http://www.topografix.com/GPX/1/1/gpx.xsd" version="1.1" creator="VisuGPX - https://www.visugpx.com">
  <metadata>
    <name>Saint Laurent sur Sèvre Sud Ouest 27 km</name>
  </metadata>
  <trk>
    <name><![CDATA[13061030-Saint Laurent test]]></name>
    <extensions>
      <line xmlns="http://www.topografix.com/GPX/gpx_style/0/2">
        <color>0000FF</color>
        <width>4</width>
      </line>
    </extensions>
    <trkseg>
      <trkpt lat="46.9639" lon="-0.88744">
        <ele>144</ele>
        <time>2021-05-15T10:11:05Z</time>
      </trkpt>
      <trkpt lat="46.96398" lon="-0.88696">
        <ele>145</ele>
        <time>2021-05-15T10:11:50Z</time>
      </trkpt>
      <trkpt lat="46.96398" lon="-0.88673">
        <ele>145</ele>
        <time>2021-05-15T10:12:11Z</time>
      </trkpt>
      <trkpt lat="46.96383" lon="-0.88642">
        <ele>145</ele>
        <time>2021-05-15T10:12:46Z</time>
      </trkpt>
      <trkpt lat="46.96377" lon="-0.88623">
        <ele>145</ele>
        <time>2021-05-15T10:13:05Z</time>
      </trkpt>
      <trkpt lat="46.96356" lon="-0.88583">
        <ele>145</ele>
        <time>2021-05-15T10:13:51Z</time>
      </trkpt>
      <trkpt lat="46.96328" lon="-0.88602">
        <ele>143</ele>
        <time>2021-05-15T10:14:32Z</time>
      </trkpt>
      <trkpt lat="46.96279" lon="-0.8859">
        <ele>140</ele>
        <time>2021-05-15T10:15:38Z</time>
      </trkpt>
      <trkpt lat="46.9627" lon="-0.88615">
        <ele>138</ele>
        <time>2021-05-15T10:16:04Z</time>
      </trkpt>
      <trkpt lat="46.96267" lon="-0.88633">
        <ele>137</ele>
        <time>2021-05-15T10:16:21Z</time>
      </trkpt>
      <trkpt lat="46.96255" lon="-0.88653">
        <ele>135</ele>
        <time>2021-05-15T10:16:45Z</time>
      </trkpt>
      <trkpt lat="46.96246" lon="-0.88645">
        <ele>134</ele>
        <time>2021-05-15T10:16:59Z</time>
      </trkpt>
      <trkpt lat="46.96231" lon="-0.88616">
        <ele>133</ele>
        <time>2021-05-15T10:17:32Z</time>
      </trkpt>
      <trkpt lat="46.96229" lon="-0.88622">
        <ele>132</ele>
        <time>2021-05-15T10:17:38Z</time>
      </trkpt>
      <trkpt lat="46.96231" lon="-0.88643">
        <ele>131</ele>
        <time>2021-05-15T10:17:58Z</time>
      </trkpt>
      <trkpt lat="46.96235" lon="-0.88653">
        <ele>132</ele>
        <time>2021-05-15T10:18:08Z</time>
      </trkpt>
      <trkpt lat="46.96234" lon="-0.88668">
        <ele>131</ele>
        <time>2021-05-15T10:18:22Z</time>
      </trkpt>
      <trkpt lat="46.9623" lon="-0.88678">
        <ele>129</ele>
        <time>2021-05-15T10:18:32Z</time>
      </trkpt>
      <trkpt lat="46.96235" lon="-0.88694">
        <ele>129</ele>
        <time>2021-05-15T10:18:48Z</time>
      </trkpt>
      <trkpt lat="46.96247" lon="-0.88705">
        <ele>130</ele>
        <time>2021-05-15T10:19:07Z</time>
      </trkpt>
      <trkpt lat="46.96233" lon="-0.88712">
        <ele>127</ele>
        <time>2021-05-15T10:19:27Z</time>
      </trkpt>
      <trkpt lat="46.96219" lon="-0.88702">
        <ele>125</ele>
        <time>2021-05-15T10:19:48Z</time>
      </trkpt>
      <trkpt lat="46.96211" lon="-0.88702">
        <ele>124</ele>
        <time>2021-05-15T10:19:58Z</time>
      </trkpt>
      <trkpt lat="46.96194" lon="-0.88681">
        <ele>122</ele>
        <time>2021-05-15T10:20:28Z</time>
      </trkpt>
      <trkpt lat="46.96187" lon="-0.8866">
        <ele>122</ele>
        <time>2021-05-15T10:20:49Z</time>
      </trkpt>
      <trkpt lat="46.96161" lon="-0.88604">
        <ele>120</ele>
        <time>2021-05-15T10:21:51Z</time>
      </trkpt>
      <trkpt lat="46.96126" lon="-0.88546">
        <ele>120</ele>
        <time>2021-05-15T10:23:02Z</time>
      </trkpt>
      <trkpt lat="46.96114" lon="-0.8855">
        <ele>118</ele>
        <time>2021-05-15T10:23:18Z</time>
      </trkpt>
      <trkpt lat="46.96085" lon="-0.88581">
        <ele>113</ele>
        <time>2021-05-15T10:24:06Z</time>
      </trkpt>
      <trkpt lat="46.96079" lon="-0.88573">
        <ele>114</ele>
        <time>2021-05-15T10:24:17Z</time>
      </trkpt>
      <trkpt lat="46.96072" lon="-0.88552">
        <ele>115</ele>
        <time>2021-05-15T10:24:38Z</time>
      </trkpt>
      <trkpt lat="46.96057" lon="-0.88501">
        <ele>118</ele>
        <time>2021-05-15T10:25:29Z</time>
      </trkpt>
      <trkpt lat="46.96046" lon="-0.88449">
        <ele>122</ele>
        <time>2021-05-15T10:26:18Z</time>
      </trkpt>
      <trkpt lat="46.96037" lon="-0.88423">
        <ele>123</ele>
        <time>2021-05-15T10:26:45Z</time>
      </trkpt>
      <trkpt lat="46.9601" lon="-0.88376">
        <ele>124</ele>
        <time>2021-05-15T10:27:41Z</time>
      </trkpt>
      <trkpt lat="46.96001" lon="-0.88352">
        <ele>125</ele>
        <time>2021-05-15T10:28:06Z</time>
      </trkpt>
      <trkpt lat="46.95986" lon="-0.88324">
        <ele>124</ele>
        <time>2021-05-15T10:28:38Z</time>
      </trkpt>
      <trkpt lat="46.9595" lon="-0.8827">
        <ele>120</ele>
        <time>2021-05-15T10:29:47Z</time>
      </trkpt>
      <trkpt lat="46.95928" lon="-0.8821">
        <ele>120</ele>
        <time>2021-05-15T10:30:49Z</time>
      </trkpt>
      <trkpt lat="46.95912" lon="-0.88178">
        <ele>119</ele>
        <time>2021-05-15T10:31:25Z</time>
      </trkpt>
      <trkpt lat="46.95882" lon="-0.88133">
        <ele>122</ele>
        <time>2021-05-15T10:32:22Z</time>
      </trkpt>
      <trkpt lat="46.95858" lon="-0.88117">
        <ele>122</ele>
        <time>2021-05-15T10:32:57Z</time>
      </trkpt>
      <trkpt lat="46.9583" lon="-0.88105">
        <ele>121</ele>
        <time>2021-05-15T10:33:36Z</time>
      </trkpt>
      <trkpt lat="46.95814" lon="-0.88094">
        <ele>122</ele>
        <time>2021-05-15T10:34:00Z</time>
      </trkpt>
      <trkpt lat="46.95804" lon="-0.88084">
        <ele>122</ele>
        <time>2021-05-15T10:34:16Z</time>
      </trkpt>
      <trkpt lat="46.95795" lon="-0.8807">
        <ele>122</ele>
        <time>2021-05-15T10:34:34Z</time>
      </trkpt>
      <trkpt lat="46.95789" lon="-0.88069">
        <ele>122</ele>
        <time>2021-05-15T10:34:42Z</time>
      </trkpt>
      <trkpt lat="46.95774" lon="-0.8809">
        <ele>119</ele>
        <time>2021-05-15T10:35:09Z</time>
      </trkpt>
      <trkpt lat="46.95755" lon="-0.88109">
        <ele>118</ele>
        <time>2021-05-15T10:35:40Z</time>
      </trkpt>
      <trkpt lat="46.95739" lon="-0.88075">
        <ele>119</ele>
        <time>2021-05-15T10:36:18Z</time>
      </trkpt>
      <trkpt lat="46.95733" lon="-0.88068">
        <ele>120</ele>
        <time>2021-05-15T10:36:28Z</time>
      </trkpt>
      <trkpt lat="46.95731" lon="-0.8807">
        <ele>120</ele>
        <time>2021-05-15T10:36:31Z</time>
      </trkpt>
      <trkpt lat="46.95745" lon="-0.88092">
        <ele>118</ele>
        <time>2021-05-15T10:36:59Z</time>
      </trkpt>
      <trkpt lat="46.95757" lon="-0.88121">
        <ele>118</ele>
        <time>2021-05-15T10:37:29Z</time>
      </trkpt>
      <trkpt lat="46.95762" lon="-0.88139">
        <ele>117</ele>
        <time>2021-05-15T10:37:47Z</time>
      </trkpt>
      <trkpt lat="46.95762" lon="-0.88149">
        <ele>117</ele>
        <time>2021-05-15T10:37:56Z</time>
      </trkpt>
      <trkpt lat="46.95748" lon="-0.88178">
        <ele>117</ele>
        <time>2021-05-15T10:38:29Z</time>
      </trkpt>
      <trkpt lat="46.95731" lon="-0.88199">
        <ele>117</ele>
        <time>2021-05-15T10:38:58Z</time>
      </trkpt>
      <trkpt lat="46.95706" lon="-0.8822">
        <ele>118</ele>
        <time>2021-05-15T10:39:37Z</time>
      </trkpt>
      <trkpt lat="46.95686" lon="-0.88241">
        <ele>118</ele>
        <time>2021-05-15T10:40:10Z</time>
      </trkpt>
      <trkpt lat="46.95673" lon="-0.88265">
        <ele>118</ele>
        <time>2021-05-15T10:40:38Z</time>
      </trkpt>
      <trkpt lat="46.95658" lon="-0.88283">
        <ele>117</ele>
        <time>2021-05-15T10:41:03Z</time>
      </trkpt>
      <trkpt lat="46.95632" lon="-0.88305">
        <ele>117</ele>
        <time>2021-05-15T10:41:43Z</time>
      </trkpt>
      <trkpt lat="46.95599" lon="-0.88321">
        <ele>118</ele>
        <time>2021-05-15T10:42:30Z</time>
      </trkpt>
      <trkpt lat="46.95573" lon="-0.88321">
        <ele>118</ele>
        <time>2021-05-15T10:43:05Z</time>
      </trkpt>
      <trkpt lat="46.95548" lon="-0.88313">
        <ele>118</ele>
        <time>2021-05-15T10:43:39Z</time>
      </trkpt>
      <trkpt lat="46.95522" lon="-0.88315">
        <ele>117</ele>
        <time>2021-05-15T10:44:13Z</time>
      </trkpt>
      <trkpt lat="46.955" lon="-0.88322">
        <ele>116</ele>
        <time>2021-05-15T10:44:43Z</time>
      </trkpt>
      <trkpt lat="46.95462" lon="-0.88362">
        <ele>113</ele>
        <time>2021-05-15T10:45:46Z</time>
      </trkpt>
      <trkpt lat="46.95447" lon="-0.88374">
        <ele>112</ele>
        <time>2021-05-15T10:46:09Z</time>
      </trkpt>
      <trkpt lat="46.95429" lon="-0.88379">
        <ele>112</ele>
        <time>2021-05-15T10:46:33Z</time>
      </trkpt>
      <trkpt lat="46.95408" lon="-0.88382">
        <ele>112</ele>
        <time>2021-05-15T10:47:01Z</time>
      </trkpt>
      <trkpt lat="46.95386" lon="-0.88376">
        <ele>113</ele>
        <time>2021-05-15T10:47:31Z</time>
      </trkpt>
      <trkpt lat="46.95331" lon="-0.88374">
        <ele>116</ele>
        <time>2021-05-15T10:48:45Z</time>
      </trkpt>
      <trkpt lat="46.95316" lon="-0.88378">
        <ele>117</ele>
        <time>2021-05-15T10:49:05Z</time>
      </trkpt>
      <trkpt lat="46.95299" lon="-0.88388">
        <ele>117</ele>
        <time>2021-05-15T10:49:29Z</time>
      </trkpt>
      <trkpt lat="46.95272" lon="-0.88393">
        <ele>118</ele>
        <time>2021-05-15T10:50:06Z</time>
      </trkpt>
      <trkpt lat="46.9524" lon="-0.88383">
        <ele>121</ele>
        <time>2021-05-15T10:50:49Z</time>
      </trkpt>
      <trkpt lat="46.95219" lon="-0.88381">
        <ele>121</ele>
        <time>2021-05-15T10:51:17Z</time>
      </trkpt>
      <trkpt lat="46.95197" lon="-0.88375">
        <ele>121</ele>
        <time>2021-05-15T10:51:47Z</time>
      </trkpt>
      <trkpt lat="46.9516" lon="-0.88357">
        <ele>122</ele>
        <time>2021-05-15T10:52:39Z</time>
      </trkpt>
      <trkpt lat="46.95149" lon="-0.88348">
        <ele>122</ele>
        <time>2021-05-15T10:52:56Z</time>
      </trkpt>
      <trkpt lat="46.95122" lon="-0.88315">
        <ele>123</ele>
        <time>2021-05-15T10:53:43Z</time>
      </trkpt>
      <trkpt lat="46.95101" lon="-0.88275">
        <ele>124</ele>
        <time>2021-05-15T10:54:29Z</time>
      </trkpt>
      <trkpt lat="46.95078" lon="-0.88212">
        <ele>124</ele>
        <time>2021-05-15T10:55:34Z</time>
      </trkpt>
      <trkpt lat="46.95058" lon="-0.88182">
        <ele>123</ele>
        <time>2021-05-15T10:56:12Z</time>
      </trkpt>
      <trkpt lat="46.95011" lon="-0.88139">
        <ele>120</ele>
        <time>2021-05-15T10:57:26Z</time>
      </trkpt>
      <trkpt lat="46.94985" lon="-0.88132">
        <ele>118</ele>
        <time>2021-05-15T10:58:02Z</time>
      </trkpt>
      <trkpt lat="46.9496" lon="-0.88141">
        <ele>117</ele>
        <time>2021-05-15T10:58:36Z</time>
      </trkpt>
      <trkpt lat="46.94937" lon="-0.88138">
        <ele>115</ele>
        <time>2021-05-15T10:59:07Z</time>
      </trkpt>
      <trkpt lat="46.94894" lon="-0.88108">
        <ele>115</ele>
        <time>2021-05-15T11:00:10Z</time>
      </trkpt>
      <trkpt lat="46.9483" lon="-0.88056">
        <ele>116</ele>
        <time>2021-05-15T11:01:48Z</time>
      </trkpt>
      <trkpt lat="46.94805" lon="-0.88053">
        <ele>116</ele>
        <time>2021-05-15T11:02:21Z</time>
      </trkpt>
      <trkpt lat="46.94766" lon="-0.88063">
        <ele>117</ele>
        <time>2021-05-15T11:03:14Z</time>
      </trkpt>
      <trkpt lat="46.9475" lon="-0.88052">
        <ele>118</ele>
        <time>2021-05-15T11:03:38Z</time>
      </trkpt>
      <trkpt lat="46.94723" lon="-0.88014">
        <ele>120</ele>
        <time>2021-05-15T11:04:28Z</time>
      </trkpt>
      <trkpt lat="46.94682" lon="-0.8803">
        <ele>122</ele>
        <time>2021-05-15T11:05:24Z</time>
      </trkpt>
      <trkpt lat="46.94653" lon="-0.88025">
        <ele>125</ele>
        <time>2021-05-15T11:06:03Z</time>
      </trkpt>
      <trkpt lat="46.94645" lon="-0.88035">
        <ele>125</ele>
        <time>2021-05-15T11:06:17Z</time>
      </trkpt>
      <trkpt lat="46.94624" lon="-0.88039">
        <ele>127</ele>
        <time>2021-05-15T11:06:46Z</time>
      </trkpt>
      <trkpt lat="46.94607" lon="-0.88036">
        <ele>129</ele>
        <time>2021-05-15T11:07:09Z</time>
      </trkpt>
      <trkpt lat="46.94593" lon="-0.88051">
        <ele>128</ele>
        <time>2021-05-15T11:07:32Z</time>
      </trkpt>
      <trkpt lat="46.94567" lon="-0.88067">
        <ele>127</ele>
        <time>2021-05-15T11:08:09Z</time>
      </trkpt>
      <trkpt lat="46.94561" lon="-0.88085">
        <ele>125</ele>
        <time>2021-05-15T11:08:28Z</time>
      </trkpt>
      <trkpt lat="46.94548" lon="-0.88097">
        <ele>124</ele>
        <time>2021-05-15T11:08:48Z</time>
      </trkpt>
      <trkpt lat="46.94537" lon="-0.88104">
        <ele>124</ele>
        <time>2021-05-15T11:09:04Z</time>
      </trkpt>
      <trkpt lat="46.94514" lon="-0.88109">
        <ele>125</ele>
        <time>2021-05-15T11:09:35Z</time>
      </trkpt>
      <trkpt lat="46.94512" lon="-0.88116">
        <ele>124</ele>
        <time>2021-05-15T11:09:42Z</time>
      </trkpt>
      <trkpt lat="46.94502" lon="-0.8812">
        <ele>124</ele>
        <time>2021-05-15T11:09:56Z</time>
      </trkpt>
      <trkpt lat="46.94494" lon="-0.88131">
        <ele>123</ele>
        <time>2021-05-15T11:10:10Z</time>
      </trkpt>
      <trkpt lat="46.94484" lon="-0.88133">
        <ele>123</ele>
        <time>2021-05-15T11:10:24Z</time>
      </trkpt>
      <trkpt lat="46.94475" lon="-0.88147">
        <ele>122</ele>
        <time>2021-05-15T11:10:41Z</time>
      </trkpt>
      <trkpt lat="46.94443" lon="-0.88176">
        <ele>121</ele>
        <time>2021-05-15T11:11:32Z</time>
      </trkpt>
      <trkpt lat="46.94435" lon="-0.88174">
        <ele>120</ele>
        <time>2021-05-15T11:11:43Z</time>
      </trkpt>
      <trkpt lat="46.94421" lon="-0.88165">
        <ele>119</ele>
        <time>2021-05-15T11:12:03Z</time>
      </trkpt>
      <trkpt lat="46.94398" lon="-0.88119">
        <ele>122</ele>
        <time>2021-05-15T11:12:55Z</time>
      </trkpt>
      <trkpt lat="46.94384" lon="-0.88053">
        <ele>125</ele>
        <time>2021-05-15T11:13:58Z</time>
      </trkpt>
      <trkpt lat="46.94375" lon="-0.8804">
        <ele>125</ele>
        <time>2021-05-15T11:14:15Z</time>
      </trkpt>
      <trkpt lat="46.94372" lon="-0.88025">
        <ele>126</ele>
        <time>2021-05-15T11:14:29Z</time>
      </trkpt>
      <trkpt lat="46.94356" lon="-0.87981">
        <ele>128</ele>
        <time>2021-05-15T11:15:14Z</time>
      </trkpt>
      <trkpt lat="46.94351" lon="-0.87951">
        <ele>131</ele>
        <time>2021-05-15T11:15:43Z</time>
      </trkpt>
      <trkpt lat="46.94347" lon="-0.87942">
        <ele>131</ele>
        <time>2021-05-15T11:15:52Z</time>
      </trkpt>
      <trkpt lat="46.94348" lon="-0.87938">
        <ele>132</ele>
        <time>2021-05-15T11:15:56Z</time>
      </trkpt>
      <trkpt lat="46.94346" lon="-0.87937">
        <ele>132</ele>
        <time>2021-05-15T11:15:59Z</time>
      </trkpt>
      <trkpt lat="46.9434" lon="-0.87888">
        <ele>135</ele>
        <time>2021-05-15T11:16:44Z</time>
      </trkpt>
      <trkpt lat="46.9434" lon="-0.87856">
        <ele>137</ele>
        <time>2021-05-15T11:17:13Z</time>
      </trkpt>
      <trkpt lat="46.94332" lon="-0.87847">
        <ele>137</ele>
        <time>2021-05-15T11:17:27Z</time>
      </trkpt>
      <trkpt lat="46.94294" lon="-0.87827">
        <ele>135</ele>
        <time>2021-05-15T11:18:21Z</time>
      </trkpt>
      <trkpt lat="46.94266" lon="-0.87821">
        <ele>132</ele>
        <time>2021-05-15T11:18:59Z</time>
      </trkpt>
      <trkpt lat="46.94233" lon="-0.87784">
        <ele>133</ele>
        <time>2021-05-15T11:19:54Z</time>
      </trkpt>
      <trkpt lat="46.94213" lon="-0.87772">
        <ele>132</ele>
        <time>2021-05-15T11:20:23Z</time>
      </trkpt>
      <trkpt lat="46.94182" lon="-0.87726">
        <ele>132</ele>
        <time>2021-05-15T11:21:22Z</time>
      </trkpt>
      <trkpt lat="46.94168" lon="-0.87711">
        <ele>132</ele>
        <time>2021-05-15T11:21:45Z</time>
      </trkpt>
      <trkpt lat="46.94157" lon="-0.87695">
        <ele>132</ele>
        <time>2021-05-15T11:22:06Z</time>
      </trkpt>
      <trkpt lat="46.94157" lon="-0.87691">
        <ele>132</ele>
        <time>2021-05-15T11:22:09Z</time>
      </trkpt>
      <trkpt lat="46.9417" lon="-0.87695">
        <ele>134</ele>
        <time>2021-05-15T11:22:27Z</time>
      </trkpt>
      <trkpt lat="46.94171" lon="-0.87701">
        <ele>133</ele>
        <time>2021-05-15T11:22:33Z</time>
      </trkpt>
      <trkpt lat="46.94184" lon="-0.87706">
        <ele>135</ele>
        <time>2021-05-15T11:22:51Z</time>
      </trkpt>
      <trkpt lat="46.94204" lon="-0.87723">
        <ele>136</ele>
        <time>2021-05-15T11:23:21Z</time>
      </trkpt>
      <trkpt lat="46.94211" lon="-0.87726">
        <ele>136</ele>
        <time>2021-05-15T11:23:31Z</time>
      </trkpt>
      <trkpt lat="46.9422" lon="-0.87724">
        <ele>138</ele>
        <time>2021-05-15T11:23:43Z</time>
      </trkpt>
      <trkpt lat="46.94221" lon="-0.87718">
        <ele>139</ele>
        <time>2021-05-15T11:23:49Z</time>
      </trkpt>
      <trkpt lat="46.94218" lon="-0.87707">
        <ele>140</ele>
        <time>2021-05-15T11:24:00Z</time>
      </trkpt>
      <trkpt lat="46.94207" lon="-0.87692">
        <ele>140</ele>
        <time>2021-05-15T11:24:20Z</time>
      </trkpt>
      <trkpt lat="46.94179" lon="-0.87665">
        <ele>138</ele>
        <time>2021-05-15T11:25:05Z</time>
      </trkpt>
      <trkpt lat="46.94164" lon="-0.87661">
        <ele>137</ele>
        <time>2021-05-15T11:25:25Z</time>
      </trkpt>
      <trkpt lat="46.94164" lon="-0.87653">
        <ele>138</ele>
        <time>2021-05-15T11:25:32Z</time>
      </trkpt>
      <trkpt lat="46.94171" lon="-0.87656">
        <ele>139</ele>
        <time>2021-05-15T11:25:42Z</time>
      </trkpt>
      <trkpt lat="46.94173" lon="-0.87653">
        <ele>139</ele>
        <time>2021-05-15T11:25:46Z</time>
      </trkpt>
      <trkpt lat="46.94171" lon="-0.87652">
        <ele>139</ele>
        <time>2021-05-15T11:25:49Z</time>
      </trkpt>
      <trkpt lat="46.94187" lon="-0.87639">
        <ele>144</ele>
        <time>2021-05-15T11:26:13Z</time>
      </trkpt>
      <trkpt lat="46.9422" lon="-0.87654">
        <ele>147</ele>
        <time>2021-05-15T11:26:59Z</time>
      </trkpt>
      <trkpt lat="46.94245" lon="-0.87669">
        <ele>149</ele>
        <time>2021-05-15T11:27:35Z</time>
      </trkpt>
      <trkpt lat="46.94267" lon="-0.8765">
        <ele>155</ele>
        <time>2021-05-15T11:28:09Z</time>
      </trkpt>
      <trkpt lat="46.94262" lon="-0.87644">
        <ele>156</ele>
        <time>2021-05-15T11:28:18Z</time>
      </trkpt>
      <trkpt lat="46.94265" lon="-0.87635">
        <ele>157</ele>
        <time>2021-05-15T11:28:27Z</time>
      </trkpt>
      <trkpt lat="46.94272" lon="-0.8763">
        <ele>159</ele>
        <time>2021-05-15T11:28:37Z</time>
      </trkpt>
      <trkpt lat="46.94289" lon="-0.87635">
        <ele>160</ele>
        <time>2021-05-15T11:29:00Z</time>
      </trkpt>
      <trkpt lat="46.94293" lon="-0.87643">
        <ele>159</ele>
        <time>2021-05-15T11:29:10Z</time>
      </trkpt>
      <trkpt lat="46.94307" lon="-0.87648">
        <ele>160</ele>
        <time>2021-05-15T11:29:29Z</time>
      </trkpt>
      <trkpt lat="46.94319" lon="-0.87642">
        <ele>162</ele>
        <time>2021-05-15T11:29:46Z</time>
      </trkpt>
      <trkpt lat="46.94321" lon="-0.87597">
        <ele>168</ele>
        <time>2021-05-15T11:30:27Z</time>
      </trkpt>
      <trkpt lat="46.94328" lon="-0.87582">
        <ele>170</ele>
        <time>2021-05-15T11:30:43Z</time>
      </trkpt>
      <trkpt lat="46.94337" lon="-0.87582">
        <ele>170</ele>
        <time>2021-05-15T11:30:55Z</time>
      </trkpt>
      <trkpt lat="46.94367" lon="-0.87629">
        <ele>165</ele>
        <time>2021-05-15T11:31:54Z</time>
      </trkpt>
      <trkpt lat="46.94371" lon="-0.87649">
        <ele>163</ele>
        <time>2021-05-15T11:32:13Z</time>
      </trkpt>
      <trkpt lat="46.94381" lon="-0.87675">
        <ele>160</ele>
        <time>2021-05-15T11:32:40Z</time>
      </trkpt>
      <trkpt lat="46.94379" lon="-0.87705">
        <ele>157</ele>
        <time>2021-05-15T11:33:08Z</time>
      </trkpt>
      <trkpt lat="46.94367" lon="-0.87745">
        <ele>153</ele>
        <time>2021-05-15T11:33:47Z</time>
      </trkpt>
      <trkpt lat="46.94365" lon="-0.87763">
        <ele>150</ele>
        <time>2021-05-15T11:34:04Z</time>
      </trkpt>
      <trkpt lat="46.94369" lon="-0.87776">
        <ele>149</ele>
        <time>2021-05-15T11:34:17Z</time>
      </trkpt>
      <trkpt lat="46.94396" lon="-0.87792">
        <ele>149</ele>
        <time>2021-05-15T11:34:56Z</time>
      </trkpt>
      <trkpt lat="46.94402" lon="-0.87786">
        <ele>150</ele>
        <time>2021-05-15T11:35:06Z</time>
      </trkpt>
      <trkpt lat="46.94412" lon="-0.87759">
        <ele>154</ele>
        <time>2021-05-15T11:35:34Z</time>
      </trkpt>
      <trkpt lat="46.94434" lon="-0.8775">
        <ele>156</ele>
        <time>2021-05-15T11:36:04Z</time>
      </trkpt>
      <trkpt lat="46.94448" lon="-0.87754">
        <ele>156</ele>
        <time>2021-05-15T11:36:23Z</time>
      </trkpt>
      <trkpt lat="46.94457" lon="-0.87744">
        <ele>157</ele>
        <time>2021-05-15T11:36:38Z</time>
      </trkpt>
      <trkpt lat="46.94463" lon="-0.87732">
        <ele>158</ele>
        <time>2021-05-15T11:36:52Z</time>
      </trkpt>
      <trkpt lat="46.94483" lon="-0.87728">
        <ele>158</ele>
        <time>2021-05-15T11:37:19Z</time>
      </trkpt>
      <trkpt lat="46.94516" lon="-0.87678">
        <ele>160</ele>
        <time>2021-05-15T11:38:22Z</time>
      </trkpt>
      <trkpt lat="46.94541" lon="-0.87652">
        <ele>160</ele>
        <time>2021-05-15T11:39:03Z</time>
      </trkpt>
      <trkpt lat="46.94548" lon="-0.87657">
        <ele>160</ele>
        <time>2021-05-15T11:39:13Z</time>
      </trkpt>
      <trkpt lat="46.94562" lon="-0.87624">
        <ele>160</ele>
        <time>2021-05-15T11:39:49Z</time>
      </trkpt>
      <trkpt lat="46.94594" lon="-0.87572">
        <ele>157</ele>
        <time>2021-05-15T11:40:52Z</time>
      </trkpt>
      <trkpt lat="46.94635" lon="-0.87491">
        <ele>157</ele>
        <time>2021-05-15T11:42:24Z</time>
      </trkpt>
      <trkpt lat="46.94667" lon="-0.87437">
        <ele>158</ele>
        <time>2021-05-15T11:43:29Z</time>
      </trkpt>
      <trkpt lat="46.9468" lon="-0.87409">
        <ele>159</ele>
        <time>2021-05-15T11:44:00Z</time>
      </trkpt>
      <trkpt lat="46.94702" lon="-0.87377">
        <ele>160</ele>
        <time>2021-05-15T11:44:42Z</time>
      </trkpt>
      <trkpt lat="46.94714" lon="-0.87345">
        <ele>160</ele>
        <time>2021-05-15T11:45:15Z</time>
      </trkpt>
      <trkpt lat="46.94712" lon="-0.87333">
        <ele>160</ele>
        <time>2021-05-15T11:45:26Z</time>
      </trkpt>
      <trkpt lat="46.94704" lon="-0.8732">
        <ele>160</ele>
        <time>2021-05-15T11:45:42Z</time>
      </trkpt>
      <trkpt lat="46.947" lon="-0.87318">
        <ele>160</ele>
        <time>2021-05-15T11:45:48Z</time>
      </trkpt>
      <trkpt lat="46.94669" lon="-0.87283">
        <ele>161</ele>
        <time>2021-05-15T11:46:40Z</time>
      </trkpt>
      <trkpt lat="46.94595" lon="-0.87179">
        <ele>166</ele>
        <time>2021-05-15T11:48:57Z</time>
      </trkpt>
      <trkpt lat="46.94548" lon="-0.87086">
        <ele>171</ele>
        <time>2021-05-15T11:50:42Z</time>
      </trkpt>
      <trkpt lat="46.94506" lon="-0.87016">
        <ele>171</ele>
        <time>2021-05-15T11:52:07Z</time>
      </trkpt>
      <trkpt lat="46.94432" lon="-0.86921">
        <ele>167</ele>
        <time>2021-05-15T11:54:18Z</time>
      </trkpt>
      <trkpt lat="46.94376" lon="-0.8683">
        <ele>166</ele>
        <time>2021-05-15T11:56:10Z</time>
      </trkpt>
      <trkpt lat="46.94329" lon="-0.86779">
        <ele>164</ele>
        <time>2021-05-15T11:57:28Z</time>
      </trkpt>
      <trkpt lat="46.94314" lon="-0.86768">
        <ele>164</ele>
        <time>2021-05-15T11:57:51Z</time>
      </trkpt>
      <trkpt lat="46.94288" lon="-0.86742">
        <ele>164</ele>
        <time>2021-05-15T11:58:33Z</time>
      </trkpt>
      <trkpt lat="46.94249" lon="-0.86693">
        <ele>164</ele>
        <time>2021-05-15T11:59:41Z</time>
      </trkpt>
      <trkpt lat="46.94187" lon="-0.86605">
        <ele>161</ele>
        <time>2021-05-15T12:01:36Z</time>
      </trkpt>
      <trkpt lat="46.94145" lon="-0.8656">
        <ele>159</ele>
        <time>2021-05-15T12:02:46Z</time>
      </trkpt>
      <trkpt lat="46.9409" lon="-0.86517">
        <ele>156</ele>
        <time>2021-05-15T12:04:09Z</time>
      </trkpt>
      <trkpt lat="46.94014" lon="-0.86467">
        <ele>152</ele>
        <time>2021-05-15T12:06:00Z</time>
      </trkpt>
      <trkpt lat="46.93992" lon="-0.86443">
        <ele>151</ele>
        <time>2021-05-15T12:06:37Z</time>
      </trkpt>
      <trkpt lat="46.93974" lon="-0.86415">
        <ele>151</ele>
        <time>2021-05-15T12:07:12Z</time>
      </trkpt>
      <trkpt lat="46.93963" lon="-0.86383">
        <ele>152</ele>
        <time>2021-05-15T12:07:44Z</time>
      </trkpt>
      <trkpt lat="46.93947" lon="-0.86318">
        <ele>154</ele>
        <time>2021-05-15T12:08:47Z</time>
      </trkpt>
      <trkpt lat="46.93933" lon="-0.86281">
        <ele>155</ele>
        <time>2021-05-15T12:09:26Z</time>
      </trkpt>
      <trkpt lat="46.93916" lon="-0.86249">
        <ele>155</ele>
        <time>2021-05-15T12:10:03Z</time>
      </trkpt>
      <trkpt lat="46.93897" lon="-0.86221">
        <ele>155</ele>
        <time>2021-05-15T12:10:39Z</time>
      </trkpt>
      <trkpt lat="46.93871" lon="-0.86191">
        <ele>155</ele>
        <time>2021-05-15T12:11:23Z</time>
      </trkpt>
      <trkpt lat="46.93682" lon="-0.86002">
        <ele>165</ele>
        <time>2021-05-15T12:16:28Z</time>
      </trkpt>
      <trkpt lat="46.93635" lon="-0.8597">
        <ele>166</ele>
        <time>2021-05-15T12:17:38Z</time>
      </trkpt>
      <trkpt lat="46.93609" lon="-0.85958">
        <ele>166</ele>
        <time>2021-05-15T12:18:14Z</time>
      </trkpt>
      <trkpt lat="46.93606" lon="-0.85986">
        <ele>166</ele>
        <time>2021-05-15T12:18:40Z</time>
      </trkpt>
      <trkpt lat="46.93596" lon="-0.86021">
        <ele>166</ele>
        <time>2021-05-15T12:19:14Z</time>
      </trkpt>
      <trkpt lat="46.9351" lon="-0.86078">
        <ele>163</ele>
        <time>2021-05-15T12:21:20Z</time>
      </trkpt>
      <trkpt lat="46.93468" lon="-0.86113">
        <ele>163</ele>
        <time>2021-05-15T12:22:25Z</time>
      </trkpt>
      <trkpt lat="46.93443" lon="-0.86141">
        <ele>163</ele>
        <time>2021-05-15T12:23:07Z</time>
      </trkpt>
      <trkpt lat="46.93397" lon="-0.86237">
        <ele>160</ele>
        <time>2021-05-15T12:24:54Z</time>
      </trkpt>
      <trkpt lat="46.93371" lon="-0.86305">
        <ele>158</ele>
        <time>2021-05-15T12:26:05Z</time>
      </trkpt>
      <trkpt lat="46.93363" lon="-0.86339">
        <ele>158</ele>
        <time>2021-05-15T12:26:37Z</time>
      </trkpt>
      <trkpt lat="46.93359" lon="-0.86426">
        <ele>157</ele>
        <time>2021-05-15T12:27:57Z</time>
      </trkpt>
      <trkpt lat="46.93364" lon="-0.86462">
        <ele>156</ele>
        <time>2021-05-15T12:28:30Z</time>
      </trkpt>
      <trkpt lat="46.93378" lon="-0.86485">
        <ele>154</ele>
        <time>2021-05-15T12:28:58Z</time>
      </trkpt>
      <trkpt lat="46.93415" lon="-0.86536">
        <ele>150</ele>
        <time>2021-05-15T12:30:06Z</time>
      </trkpt>
      <trkpt lat="46.9343" lon="-0.86551">
        <ele>149</ele>
        <time>2021-05-15T12:30:31Z</time>
      </trkpt>
      <trkpt lat="46.93449" lon="-0.86559">
        <ele>148</ele>
        <time>2021-05-15T12:30:57Z</time>
      </trkpt>
      <trkpt lat="46.93457" lon="-0.86581">
        <ele>147</ele>
        <time>2021-05-15T12:31:20Z</time>
      </trkpt>
      <trkpt lat="46.93443" lon="-0.86658">
        <ele>139</ele>
        <time>2021-05-15T12:32:32Z</time>
      </trkpt>
      <trkpt lat="46.93409" lon="-0.86783">
        <ele>128</ele>
        <time>2021-05-15T12:34:35Z</time>
      </trkpt>
      <trkpt lat="46.93396" lon="-0.86808">
        <ele>127</ele>
        <time>2021-05-15T12:35:03Z</time>
      </trkpt>
      <trkpt lat="46.9338" lon="-0.86831">
        <ele>125</ele>
        <time>2021-05-15T12:35:33Z</time>
      </trkpt>
      <trkpt lat="46.93364" lon="-0.86849">
        <ele>125</ele>
        <time>2021-05-15T12:36:00Z</time>
      </trkpt>
      <trkpt lat="46.93355" lon="-0.86865">
        <ele>124</ele>
        <time>2021-05-15T12:36:19Z</time>
      </trkpt>
      <trkpt lat="46.93356" lon="-0.86872">
        <ele>123</ele>
        <time>2021-05-15T12:36:26Z</time>
      </trkpt>
      <trkpt lat="46.93361" lon="-0.86863">
        <ele>124</ele>
        <time>2021-05-15T12:36:36Z</time>
      </trkpt>
      <trkpt lat="46.93365" lon="-0.86865">
        <ele>124</ele>
        <time>2021-05-15T12:36:42Z</time>
      </trkpt>
      <trkpt lat="46.93357" lon="-0.8687">
        <ele>124</ele>
        <time>2021-05-15T12:36:54Z</time>
      </trkpt>
      <trkpt lat="46.93362" lon="-0.86867">
        <ele>124</ele>
        <time>2021-05-15T12:37:01Z</time>
      </trkpt>
      <trkpt lat="46.93358" lon="-0.86868">
        <ele>124</ele>
        <time>2021-05-15T12:37:06Z</time>
      </trkpt>
      <trkpt lat="46.93361" lon="-0.86866">
        <ele>124</ele>
        <time>2021-05-15T12:37:11Z</time>
      </trkpt>
      <trkpt lat="46.93359" lon="-0.86873">
        <ele>123</ele>
        <time>2021-05-15T12:37:17Z</time>
      </trkpt>
      <trkpt lat="46.93363" lon="-0.86872">
        <ele>123</ele>
        <time>2021-05-15T12:37:23Z</time>
      </trkpt>
      <trkpt lat="46.93357" lon="-0.86872">
        <ele>123</ele>
        <time>2021-05-15T12:37:31Z</time>
      </trkpt>
      <trkpt lat="46.93356" lon="-0.86874">
        <ele>123</ele>
        <time>2021-05-15T12:37:33Z</time>
      </trkpt>
      <trkpt lat="46.93363" lon="-0.86869">
        <ele>123</ele>
        <time>2021-05-15T12:37:44Z</time>
      </trkpt>
      <trkpt lat="46.93363" lon="-0.86873">
        <ele>123</ele>
        <time>2021-05-15T12:37:47Z</time>
      </trkpt>
      <trkpt lat="46.93359" lon="-0.86877">
        <ele>123</ele>
        <time>2021-05-15T12:37:54Z</time>
      </trkpt>
      <trkpt lat="46.93362" lon="-0.86871">
        <ele>123</ele>
        <time>2021-05-15T12:38:00Z</time>
      </trkpt>
      <trkpt lat="46.93372" lon="-0.86864">
        <ele>123</ele>
        <time>2021-05-15T12:38:15Z</time>
      </trkpt>
      <trkpt lat="46.93379" lon="-0.86865">
        <ele>123</ele>
        <time>2021-05-15T12:38:25Z</time>
      </trkpt>
      <trkpt lat="46.93366" lon="-0.86866">
        <ele>124</ele>
        <time>2021-05-15T12:38:42Z</time>
      </trkpt>
      <trkpt lat="46.93353" lon="-0.86875">
        <ele>123</ele>
        <time>2021-05-15T12:39:01Z</time>
      </trkpt>
      <trkpt lat="46.93346" lon="-0.86864">
        <ele>125</ele>
        <time>2021-05-15T12:39:15Z</time>
      </trkpt>
      <trkpt lat="46.93336" lon="-0.86864">
        <ele>125</ele>
        <time>2021-05-15T12:39:28Z</time>
      </trkpt>
      <trkpt lat="46.93321" lon="-0.86857">
        <ele>126</ele>
        <time>2021-05-15T12:39:49Z</time>
      </trkpt>
      <trkpt lat="46.93293" lon="-0.86856">
        <ele>126</ele>
        <time>2021-05-15T12:40:27Z</time>
      </trkpt>
      <trkpt lat="46.93265" lon="-0.86851">
        <ele>127</ele>
        <time>2021-05-15T12:41:04Z</time>
      </trkpt>
      <trkpt lat="46.93245" lon="-0.86854">
        <ele>127</ele>
        <time>2021-05-15T12:41:31Z</time>
      </trkpt>
      <trkpt lat="46.93226" lon="-0.8685">
        <ele>127</ele>
        <time>2021-05-15T12:41:57Z</time>
      </trkpt>
      <trkpt lat="46.93213" lon="-0.8685">
        <ele>126</ele>
        <time>2021-05-15T12:42:14Z</time>
      </trkpt>
      <trkpt lat="46.93205" lon="-0.86848">
        <ele>126</ele>
        <time>2021-05-15T12:42:25Z</time>
      </trkpt>
      <trkpt lat="46.93187" lon="-0.86837">
        <ele>126</ele>
        <time>2021-05-15T12:42:51Z</time>
      </trkpt>
      <trkpt lat="46.93171" lon="-0.86832">
        <ele>126</ele>
        <time>2021-05-15T12:43:13Z</time>
      </trkpt>
      <trkpt lat="46.93155" lon="-0.86834">
        <ele>125</ele>
        <time>2021-05-15T12:43:34Z</time>
      </trkpt>
      <trkpt lat="46.93141" lon="-0.86828">
        <ele>125</ele>
        <time>2021-05-15T12:43:54Z</time>
      </trkpt>
      <trkpt lat="46.93134" lon="-0.86811">
        <ele>126</ele>
        <time>2021-05-15T12:44:12Z</time>
      </trkpt>
      <trkpt lat="46.93135" lon="-0.86804">
        <ele>126</ele>
        <time>2021-05-15T12:44:18Z</time>
      </trkpt>
      <trkpt lat="46.93139" lon="-0.86798">
        <ele>127</ele>
        <time>2021-05-15T12:44:26Z</time>
      </trkpt>
      <trkpt lat="46.93136" lon="-0.86779">
        <ele>128</ele>
        <time>2021-05-15T12:44:44Z</time>
      </trkpt>
      <trkpt lat="46.93127" lon="-0.86761">
        <ele>128</ele>
        <time>2021-05-15T12:45:04Z</time>
      </trkpt>
      <trkpt lat="46.93099" lon="-0.86668">
        <ele>125</ele>
        <time>2021-05-15T12:46:37Z</time>
      </trkpt>
      <trkpt lat="46.93083" lon="-0.86631">
        <ele>124</ele>
        <time>2021-05-15T12:47:16Z</time>
      </trkpt>
      <trkpt lat="46.93063" lon="-0.8657">
        <ele>125</ele>
        <time>2021-05-15T12:48:18Z</time>
      </trkpt>
      <trkpt lat="46.93044" lon="-0.86576">
        <ele>123</ele>
        <time>2021-05-15T12:48:44Z</time>
      </trkpt>
      <trkpt lat="46.92982" lon="-0.86612">
        <ele>121</ele>
        <time>2021-05-15T12:50:13Z</time>
      </trkpt>
      <trkpt lat="46.92977" lon="-0.86613">
        <ele>121</ele>
        <time>2021-05-15T12:50:20Z</time>
      </trkpt>
      <trkpt lat="46.92883" lon="-0.86524">
        <ele>127</ele>
        <time>2021-05-15T12:52:49Z</time>
      </trkpt>
      <trkpt lat="46.92868" lon="-0.86526">
        <ele>129</ele>
        <time>2021-05-15T12:53:09Z</time>
      </trkpt>
      <trkpt lat="46.92827" lon="-0.86566">
        <ele>134</ele>
        <time>2021-05-15T12:54:15Z</time>
      </trkpt>
      <trkpt lat="46.92805" lon="-0.86598">
        <ele>138</ele>
        <time>2021-05-15T12:54:56Z</time>
      </trkpt>
      <trkpt lat="46.92796" lon="-0.86601">
        <ele>141</ele>
        <time>2021-05-15T12:55:09Z</time>
      </trkpt>
      <trkpt lat="46.92787" lon="-0.86598">
        <ele>143</ele>
        <time>2021-05-15T12:55:21Z</time>
      </trkpt>
      <trkpt lat="46.92776" lon="-0.86588">
        <ele>147</ele>
        <time>2021-05-15T12:55:38Z</time>
      </trkpt>
      <trkpt lat="46.92764" lon="-0.86583">
        <ele>151</ele>
        <time>2021-05-15T12:55:55Z</time>
      </trkpt>
      <trkpt lat="46.92749" lon="-0.86582">
        <ele>155</ele>
        <time>2021-05-15T12:56:15Z</time>
      </trkpt>
      <trkpt lat="46.9274" lon="-0.86576">
        <ele>156</ele>
        <time>2021-05-15T12:56:28Z</time>
      </trkpt>
      <trkpt lat="46.92721" lon="-0.86569">
        <ele>159</ele>
        <time>2021-05-15T12:56:54Z</time>
      </trkpt>
      <trkpt lat="46.92707" lon="-0.86573">
        <ele>161</ele>
        <time>2021-05-15T12:57:13Z</time>
      </trkpt>
      <trkpt lat="46.92701" lon="-0.86571">
        <ele>161</ele>
        <time>2021-05-15T12:57:22Z</time>
      </trkpt>
      <trkpt lat="46.927" lon="-0.86568">
        <ele>162</ele>
        <time>2021-05-15T12:57:25Z</time>
      </trkpt>
      <trkpt lat="46.92682" lon="-0.86581">
        <ele>163</ele>
        <time>2021-05-15T12:57:51Z</time>
      </trkpt>
      <trkpt lat="46.92666" lon="-0.86599">
        <ele>164</ele>
        <time>2021-05-15T12:58:18Z</time>
      </trkpt>
      <trkpt lat="46.92636" lon="-0.86615">
        <ele>166</ele>
        <time>2021-05-15T12:59:01Z</time>
      </trkpt>
      <trkpt lat="46.92614" lon="-0.86618">
        <ele>167</ele>
        <time>2021-05-15T12:59:30Z</time>
      </trkpt>
      <trkpt lat="46.92603" lon="-0.86622">
        <ele>168</ele>
        <time>2021-05-15T12:59:46Z</time>
      </trkpt>
      <trkpt lat="46.92578" lon="-0.86621">
        <ele>170</ele>
        <time>2021-05-15T13:00:19Z</time>
      </trkpt>
      <trkpt lat="46.92542" lon="-0.86634">
        <ele>173</ele>
        <time>2021-05-15T13:01:08Z</time>
      </trkpt>
      <trkpt lat="46.92518" lon="-0.86635">
        <ele>175</ele>
        <time>2021-05-15T13:01:40Z</time>
      </trkpt>
      <trkpt lat="46.92497" lon="-0.86629">
        <ele>177</ele>
        <time>2021-05-15T13:02:09Z</time>
      </trkpt>
      <trkpt lat="46.92478" lon="-0.86631">
        <ele>178</ele>
        <time>2021-05-15T13:02:34Z</time>
      </trkpt>
      <trkpt lat="46.9246" lon="-0.86628">
        <ele>180</ele>
        <time>2021-05-15T13:02:59Z</time>
      </trkpt>
      <trkpt lat="46.92427" lon="-0.86633">
        <ele>182</ele>
        <time>2021-05-15T13:03:43Z</time>
      </trkpt>
      <trkpt lat="46.92402" lon="-0.86625">
        <ele>183</ele>
        <time>2021-05-15T13:04:17Z</time>
      </trkpt>
      <trkpt lat="46.92381" lon="-0.86612">
        <ele>185</ele>
        <time>2021-05-15T13:04:47Z</time>
      </trkpt>
      <trkpt lat="46.92362" lon="-0.86585">
        <ele>186</ele>
        <time>2021-05-15T13:05:23Z</time>
      </trkpt>
      <trkpt lat="46.92312" lon="-0.86602">
        <ele>187</ele>
        <time>2021-05-15T13:06:31Z</time>
      </trkpt>
      <trkpt lat="46.9229" lon="-0.86605">
        <ele>187</ele>
        <time>2021-05-15T13:07:01Z</time>
      </trkpt>
      <trkpt lat="46.92269" lon="-0.86615">
        <ele>186</ele>
        <time>2021-05-15T13:07:30Z</time>
      </trkpt>
      <trkpt lat="46.92225" lon="-0.86644">
        <ele>185</ele>
        <time>2021-05-15T13:08:35Z</time>
      </trkpt>
      <trkpt lat="46.92196" lon="-0.86658">
        <ele>184</ele>
        <time>2021-05-15T13:09:15Z</time>
      </trkpt>
      <trkpt lat="46.9217" lon="-0.86664">
        <ele>183</ele>
        <time>2021-05-15T13:09:51Z</time>
      </trkpt>
      <trkpt lat="46.92149" lon="-0.86665">
        <ele>182</ele>
        <time>2021-05-15T13:10:19Z</time>
      </trkpt>
      <trkpt lat="46.92089" lon="-0.86659">
        <ele>179</ele>
        <time>2021-05-15T13:11:39Z</time>
      </trkpt>
      <trkpt lat="46.92053" lon="-0.86649">
        <ele>178</ele>
        <time>2021-05-15T13:12:28Z</time>
      </trkpt>
      <trkpt lat="46.92013" lon="-0.86652">
        <ele>176</ele>
        <time>2021-05-15T13:13:21Z</time>
      </trkpt>
      <trkpt lat="46.91932" lon="-0.8664">
        <ele>172</ele>
        <time>2021-05-15T13:15:10Z</time>
      </trkpt>
      <trkpt lat="46.91929" lon="-0.8664">
        <ele>171</ele>
        <time>2021-05-15T13:15:14Z</time>
      </trkpt>
      <trkpt lat="46.91931" lon="-0.86641">
        <ele>171</ele>
        <time>2021-05-15T13:15:17Z</time>
      </trkpt>
      <trkpt lat="46.91929" lon="-0.86643">
        <ele>171</ele>
        <time>2021-05-15T13:15:20Z</time>
      </trkpt>
      <trkpt lat="46.91917" lon="-0.86641">
        <ele>171</ele>
        <time>2021-05-15T13:15:36Z</time>
      </trkpt>
      <trkpt lat="46.91896" lon="-0.86648">
        <ele>169</ele>
        <time>2021-05-15T13:16:05Z</time>
      </trkpt>
      <trkpt lat="46.91855" lon="-0.8664">
        <ele>165</ele>
        <time>2021-05-15T13:17:00Z</time>
      </trkpt>
      <trkpt lat="46.91852" lon="-0.86642">
        <ele>165</ele>
        <time>2021-05-15T13:17:04Z</time>
      </trkpt>
      <trkpt lat="46.91823" lon="-0.86637">
        <ele>163</ele>
        <time>2021-05-15T13:17:43Z</time>
      </trkpt>
      <trkpt lat="46.91763" lon="-0.86617">
        <ele>160</ele>
        <time>2021-05-15T13:19:05Z</time>
      </trkpt>
      <trkpt lat="46.91734" lon="-0.866">
        <ele>159</ele>
        <time>2021-05-15T13:19:47Z</time>
      </trkpt>
      <trkpt lat="46.91681" lon="-0.86555">
        <ele>155</ele>
        <time>2021-05-15T13:21:09Z</time>
      </trkpt>
      <trkpt lat="46.91643" lon="-0.86529">
        <ele>153</ele>
        <time>2021-05-15T13:22:05Z</time>
      </trkpt>
      <trkpt lat="46.91625" lon="-0.86504">
        <ele>152</ele>
        <time>2021-05-15T13:22:38Z</time>
      </trkpt>
      <trkpt lat="46.9162" lon="-0.86502">
        <ele>152</ele>
        <time>2021-05-15T13:22:45Z</time>
      </trkpt>
      <trkpt lat="46.91579" lon="-0.8653">
        <ele>149</ele>
        <time>2021-05-15T13:23:45Z</time>
      </trkpt>
      <trkpt lat="46.91558" lon="-0.86539">
        <ele>148</ele>
        <time>2021-05-15T13:24:14Z</time>
      </trkpt>
      <trkpt lat="46.91524" lon="-0.86568">
        <ele>148</ele>
        <time>2021-05-15T13:25:07Z</time>
      </trkpt>
      <trkpt lat="46.91385" lon="-0.86671">
        <ele>141</ele>
        <time>2021-05-15T13:28:35Z</time>
      </trkpt>
      <trkpt lat="46.91329" lon="-0.8662">
        <ele>139</ele>
        <time>2021-05-15T13:30:03Z</time>
      </trkpt>
      <trkpt lat="46.91312" lon="-0.866">
        <ele>138</ele>
        <time>2021-05-15T13:30:32Z</time>
      </trkpt>
      <trkpt lat="46.91282" lon="-0.86576">
        <ele>136</ele>
        <time>2021-05-15T13:31:18Z</time>
      </trkpt>
      <trkpt lat="46.91251" lon="-0.86544">
        <ele>135</ele>
        <time>2021-05-15T13:32:08Z</time>
      </trkpt>
      <trkpt lat="46.91232" lon="-0.86534">
        <ele>136</ele>
        <time>2021-05-15T13:32:35Z</time>
      </trkpt>
      <trkpt lat="46.9121" lon="-0.86538">
        <ele>137</ele>
        <time>2021-05-15T13:33:05Z</time>
      </trkpt>
      <trkpt lat="46.91197" lon="-0.86534">
        <ele>138</ele>
        <time>2021-05-15T13:33:22Z</time>
      </trkpt>
      <trkpt lat="46.91185" lon="-0.86527">
        <ele>139</ele>
        <time>2021-05-15T13:33:40Z</time>
      </trkpt>
      <trkpt lat="46.91192" lon="-0.86514">
        <ele>139</ele>
        <time>2021-05-15T13:33:55Z</time>
      </trkpt>
      <trkpt lat="46.91205" lon="-0.86463">
        <ele>142</ele>
        <time>2021-05-15T13:34:44Z</time>
      </trkpt>
      <trkpt lat="46.91206" lon="-0.86445">
        <ele>144</ele>
        <time>2021-05-15T13:35:01Z</time>
      </trkpt>
      <trkpt lat="46.91203" lon="-0.86402">
        <ele>147</ele>
        <time>2021-05-15T13:35:40Z</time>
      </trkpt>
      <trkpt lat="46.91191" lon="-0.86391">
        <ele>148</ele>
        <time>2021-05-15T13:35:59Z</time>
      </trkpt>
      <trkpt lat="46.91167" lon="-0.86387">
        <ele>149</ele>
        <time>2021-05-15T13:36:31Z</time>
      </trkpt>
      <trkpt lat="46.91138" lon="-0.86398">
        <ele>149</ele>
        <time>2021-05-15T13:37:11Z</time>
      </trkpt>
      <trkpt lat="46.91123" lon="-0.8641">
        <ele>148</ele>
        <time>2021-05-15T13:37:34Z</time>
      </trkpt>
      <trkpt lat="46.91106" lon="-0.86383">
        <ele>149</ele>
        <time>2021-05-15T13:38:08Z</time>
      </trkpt>
      <trkpt lat="46.91097" lon="-0.8638">
        <ele>149</ele>
        <time>2021-05-15T13:38:20Z</time>
      </trkpt>
      <trkpt lat="46.91095" lon="-0.86396">
        <ele>149</ele>
        <time>2021-05-15T13:38:35Z</time>
      </trkpt>
      <trkpt lat="46.91102" lon="-0.86434">
        <ele>146</ele>
        <time>2021-05-15T13:39:11Z</time>
      </trkpt>
      <trkpt lat="46.91103" lon="-0.86454">
        <ele>143</ele>
        <time>2021-05-15T13:39:29Z</time>
      </trkpt>
      <trkpt lat="46.91116" lon="-0.86476">
        <ele>141</ele>
        <time>2021-05-15T13:39:55Z</time>
      </trkpt>
      <trkpt lat="46.91125" lon="-0.86518">
        <ele>138</ele>
        <time>2021-05-15T13:40:36Z</time>
      </trkpt>
      <trkpt lat="46.91122" lon="-0.86525">
        <ele>137</ele>
        <time>2021-05-15T13:40:43Z</time>
      </trkpt>
      <trkpt lat="46.91092" lon="-0.86565">
        <ele>131</ele>
        <time>2021-05-15T13:41:37Z</time>
      </trkpt>
      <trkpt lat="46.9109" lon="-0.86577">
        <ele>129</ele>
        <time>2021-05-15T13:41:49Z</time>
      </trkpt>
      <trkpt lat="46.91092" lon="-0.86586">
        <ele>129</ele>
        <time>2021-05-15T13:41:57Z</time>
      </trkpt>
      <trkpt lat="46.91092" lon="-0.86584">
        <ele>129</ele>
        <time>2021-05-15T13:41:59Z</time>
      </trkpt>
      <trkpt lat="46.91087" lon="-0.86587">
        <ele>128</ele>
        <time>2021-05-15T13:42:06Z</time>
      </trkpt>
      <trkpt lat="46.91078" lon="-0.86597">
        <ele>128</ele>
        <time>2021-05-15T13:42:21Z</time>
      </trkpt>
      <trkpt lat="46.91082" lon="-0.86603">
        <ele>128</ele>
        <time>2021-05-15T13:42:29Z</time>
      </trkpt>
      <trkpt lat="46.91073" lon="-0.86612">
        <ele>128</ele>
        <time>2021-05-15T13:42:43Z</time>
      </trkpt>
      <trkpt lat="46.91062" lon="-0.86642">
        <ele>127</ele>
        <time>2021-05-15T13:43:15Z</time>
      </trkpt>
      <trkpt lat="46.91021" lon="-0.86713">
        <ele>127</ele>
        <time>2021-05-15T13:44:39Z</time>
      </trkpt>
      <trkpt lat="46.91015" lon="-0.86715">
        <ele>127</ele>
        <time>2021-05-15T13:44:47Z</time>
      </trkpt>
      <trkpt lat="46.91011" lon="-0.86721">
        <ele>127</ele>
        <time>2021-05-15T13:44:55Z</time>
      </trkpt>
      <trkpt lat="46.91006" lon="-0.86734">
        <ele>127</ele>
        <time>2021-05-15T13:45:09Z</time>
      </trkpt>
      <trkpt lat="46.91006" lon="-0.8673">
        <ele>127</ele>
        <time>2021-05-15T13:45:12Z</time>
      </trkpt>
      <trkpt lat="46.90993" lon="-0.8671">
        <ele>127</ele>
        <time>2021-05-15T13:45:38Z</time>
      </trkpt>
      <trkpt lat="46.90974" lon="-0.86694">
        <ele>128</ele>
        <time>2021-05-15T13:46:07Z</time>
      </trkpt>
      <trkpt lat="46.90982" lon="-0.86704">
        <ele>128</ele>
        <time>2021-05-15T13:46:21Z</time>
      </trkpt>
      <trkpt lat="46.90993" lon="-0.86705">
        <ele>127</ele>
        <time>2021-05-15T13:46:36Z</time>
      </trkpt>
      <trkpt lat="46.91005" lon="-0.86725">
        <ele>127</ele>
        <time>2021-05-15T13:47:00Z</time>
      </trkpt>
      <trkpt lat="46.90995" lon="-0.86741">
        <ele>128</ele>
        <time>2021-05-15T13:47:20Z</time>
      </trkpt>
      <trkpt lat="46.90947" lon="-0.86764">
        <ele>136</ele>
        <time>2021-05-15T13:48:27Z</time>
      </trkpt>
      <trkpt lat="46.90915" lon="-0.86765">
        <ele>139</ele>
        <time>2021-05-15T13:49:10Z</time>
      </trkpt>
      <trkpt lat="46.90894" lon="-0.86771">
        <ele>142</ele>
        <time>2021-05-15T13:49:38Z</time>
      </trkpt>
      <trkpt lat="46.90851" lon="-0.86813">
        <ele>149</ele>
        <time>2021-05-15T13:50:47Z</time>
      </trkpt>
      <trkpt lat="46.9081" lon="-0.86834">
        <ele>153</ele>
        <time>2021-05-15T13:51:45Z</time>
      </trkpt>
      <trkpt lat="46.90791" lon="-0.86838">
        <ele>155</ele>
        <time>2021-05-15T13:52:11Z</time>
      </trkpt>
      <trkpt lat="46.90758" lon="-0.86859">
        <ele>159</ele>
        <time>2021-05-15T13:52:59Z</time>
      </trkpt>
      <trkpt lat="46.90731" lon="-0.86867">
        <ele>162</ele>
        <time>2021-05-15T13:53:36Z</time>
      </trkpt>
      <trkpt lat="46.90695" lon="-0.86872">
        <ele>166</ele>
        <time>2021-05-15T13:54:24Z</time>
      </trkpt>
      <trkpt lat="46.90649" lon="-0.86887">
        <ele>170</ele>
        <time>2021-05-15T13:55:27Z</time>
      </trkpt>
      <trkpt lat="46.90591" lon="-0.86911">
        <ele>173</ele>
        <time>2021-05-15T13:56:47Z</time>
      </trkpt>
      <trkpt lat="46.90543" lon="-0.86935">
        <ele>174</ele>
        <time>2021-05-15T13:57:55Z</time>
      </trkpt>
      <trkpt lat="46.90523" lon="-0.86949">
        <ele>174</ele>
        <time>2021-05-15T13:58:24Z</time>
      </trkpt>
      <trkpt lat="46.90498" lon="-0.86961">
        <ele>175</ele>
        <time>2021-05-15T13:59:00Z</time>
      </trkpt>
      <trkpt lat="46.90475" lon="-0.86978">
        <ele>175</ele>
        <time>2021-05-15T13:59:34Z</time>
      </trkpt>
      <trkpt lat="46.90428" lon="-0.87005">
        <ele>176</ele>
        <time>2021-05-15T14:00:41Z</time>
      </trkpt>
      <trkpt lat="46.90312" lon="-0.87101">
        <ele>177</ele>
        <time>2021-05-15T14:03:39Z</time>
      </trkpt>
      <trkpt lat="46.90243" lon="-0.87171">
        <ele>177</ele>
        <time>2021-05-15T14:05:31Z</time>
      </trkpt>
      <trkpt lat="46.90214" lon="-0.87218">
        <ele>177</ele>
        <time>2021-05-15T14:06:29Z</time>
      </trkpt>
      <trkpt lat="46.90187" lon="-0.87269">
        <ele>178</ele>
        <time>2021-05-15T14:07:28Z</time>
      </trkpt>
      <trkpt lat="46.90136" lon="-0.87342">
        <ele>180</ele>
        <time>2021-05-15T14:09:03Z</time>
      </trkpt>
      <trkpt lat="46.90083" lon="-0.87439">
        <ele>181</ele>
        <time>2021-05-15T14:10:56Z</time>
      </trkpt>
      <trkpt lat="46.90068" lon="-0.8746">
        <ele>181</ele>
        <time>2021-05-15T14:11:24Z</time>
      </trkpt>
      <trkpt lat="46.90027" lon="-0.87499">
        <ele>181</ele>
        <time>2021-05-15T14:12:29Z</time>
      </trkpt>
      <trkpt lat="46.90007" lon="-0.87512">
        <ele>180</ele>
        <time>2021-05-15T14:12:58Z</time>
      </trkpt>
      <trkpt lat="46.89993" lon="-0.87525">
        <ele>181</ele>
        <time>2021-05-15T14:13:20Z</time>
      </trkpt>
      <trkpt lat="46.8995" lon="-0.8755">
        <ele>184</ele>
        <time>2021-05-15T14:14:22Z</time>
      </trkpt>
      <trkpt lat="46.89951" lon="-0.8756">
        <ele>184</ele>
        <time>2021-05-15T14:14:31Z</time>
      </trkpt>
      <trkpt lat="46.89943" lon="-0.87551">
        <ele>184</ele>
        <time>2021-05-15T14:14:45Z</time>
      </trkpt>
      <trkpt lat="46.89854" lon="-0.87618">
        <ele>190</ele>
        <time>2021-05-15T14:16:58Z</time>
      </trkpt>
      <trkpt lat="46.8981" lon="-0.87612">
        <ele>191</ele>
        <time>2021-05-15T14:17:57Z</time>
      </trkpt>
      <trkpt lat="46.89776" lon="-0.87604">
        <ele>192</ele>
        <time>2021-05-15T14:18:43Z</time>
      </trkpt>
      <trkpt lat="46.89753" lon="-0.87621">
        <ele>193</ele>
        <time>2021-05-15T14:19:18Z</time>
      </trkpt>
      <trkpt lat="46.89734" lon="-0.87612">
        <ele>193</ele>
        <time>2021-05-15T14:19:44Z</time>
      </trkpt>
      <trkpt lat="46.89687" lon="-0.8763">
        <ele>194</ele>
        <time>2021-05-15T14:20:49Z</time>
      </trkpt>
      <trkpt lat="46.89703" lon="-0.87727">
        <ele>193</ele>
        <time>2021-05-15T14:22:20Z</time>
      </trkpt>
      <trkpt lat="46.89715" lon="-0.87752">
        <ele>192</ele>
        <time>2021-05-15T14:22:48Z</time>
      </trkpt>
      <trkpt lat="46.89719" lon="-0.8778">
        <ele>192</ele>
        <time>2021-05-15T14:23:14Z</time>
      </trkpt>
      <trkpt lat="46.89737" lon="-0.87851">
        <ele>191</ele>
        <time>2021-05-15T14:24:23Z</time>
      </trkpt>
      <trkpt lat="46.89727" lon="-0.87812">
        <ele>191</ele>
        <time>2021-05-15T14:25:01Z</time>
      </trkpt>
      <trkpt lat="46.89727" lon="-0.87825">
        <ele>191</ele>
        <time>2021-05-15T14:25:13Z</time>
      </trkpt>
      <trkpt lat="46.89724" lon="-0.87808">
        <ele>191</ele>
        <time>2021-05-15T14:25:29Z</time>
      </trkpt>
      <trkpt lat="46.89729" lon="-0.87844">
        <ele>191</ele>
        <time>2021-05-15T14:26:03Z</time>
      </trkpt>
      <trkpt lat="46.89738" lon="-0.87853">
        <ele>191</ele>
        <time>2021-05-15T14:26:17Z</time>
      </trkpt>
      <trkpt lat="46.89741" lon="-0.87871">
        <ele>191</ele>
        <time>2021-05-15T14:26:34Z</time>
      </trkpt>
      <trkpt lat="46.89752" lon="-0.87893">
        <ele>191</ele>
        <time>2021-05-15T14:26:59Z</time>
      </trkpt>
      <trkpt lat="46.89757" lon="-0.87947">
        <ele>191</ele>
        <time>2021-05-15T14:27:49Z</time>
      </trkpt>
      <trkpt lat="46.89766" lon="-0.87962">
        <ele>190</ele>
        <time>2021-05-15T14:28:07Z</time>
      </trkpt>
      <trkpt lat="46.89762" lon="-0.87988">
        <ele>190</ele>
        <time>2021-05-15T14:28:31Z</time>
      </trkpt>
      <trkpt lat="46.89766" lon="-0.88016">
        <ele>190</ele>
        <time>2021-05-15T14:28:57Z</time>
      </trkpt>
      <trkpt lat="46.89777" lon="-0.88036">
        <ele>189</ele>
        <time>2021-05-15T14:29:21Z</time>
      </trkpt>
      <trkpt lat="46.89789" lon="-0.88082">
        <ele>188</ele>
        <time>2021-05-15T14:30:05Z</time>
      </trkpt>
      <trkpt lat="46.89833" lon="-0.88126">
        <ele>185</ele>
        <time>2021-05-15T14:31:17Z</time>
      </trkpt>
      <trkpt lat="46.89851" lon="-0.88139">
        <ele>184</ele>
        <time>2021-05-15T14:31:43Z</time>
      </trkpt>
      <trkpt lat="46.89951" lon="-0.88191">
        <ele>179</ele>
        <time>2021-05-15T14:34:05Z</time>
      </trkpt>
      <trkpt lat="46.89955" lon="-0.88205">
        <ele>178</ele>
        <time>2021-05-15T14:34:19Z</time>
      </trkpt>
      <trkpt lat="46.8995" lon="-0.88231">
        <ele>177</ele>
        <time>2021-05-15T14:34:43Z</time>
      </trkpt>
      <trkpt lat="46.89952" lon="-0.88286">
        <ele>175</ele>
        <time>2021-05-15T14:35:34Z</time>
      </trkpt>
      <trkpt lat="46.89947" lon="-0.88307">
        <ele>175</ele>
        <time>2021-05-15T14:35:54Z</time>
      </trkpt>
      <trkpt lat="46.89932" lon="-0.88328">
        <ele>175</ele>
        <time>2021-05-15T14:36:22Z</time>
      </trkpt>
      <trkpt lat="46.89913" lon="-0.8834">
        <ele>176</ele>
        <time>2021-05-15T14:36:49Z</time>
      </trkpt>
      <trkpt lat="46.89893" lon="-0.88368">
        <ele>175</ele>
        <time>2021-05-15T14:37:26Z</time>
      </trkpt>
      <trkpt lat="46.89873" lon="-0.88407">
        <ele>174</ele>
        <time>2021-05-15T14:38:11Z</time>
      </trkpt>
      <trkpt lat="46.89873" lon="-0.88439">
        <ele>172</ele>
        <time>2021-05-15T14:38:40Z</time>
      </trkpt>
      <trkpt lat="46.89868" lon="-0.88428">
        <ele>173</ele>
        <time>2021-05-15T14:38:52Z</time>
      </trkpt>
      <trkpt lat="46.89868" lon="-0.88422">
        <ele>173</ele>
        <time>2021-05-15T14:38:57Z</time>
      </trkpt>
      <trkpt lat="46.89875" lon="-0.88405">
        <ele>174</ele>
        <time>2021-05-15T14:39:15Z</time>
      </trkpt>
      <trkpt lat="46.8987" lon="-0.88413">
        <ele>173</ele>
        <time>2021-05-15T14:39:25Z</time>
      </trkpt>
      <trkpt lat="46.89868" lon="-0.88424">
        <ele>173</ele>
        <time>2021-05-15T14:39:36Z</time>
      </trkpt>
      <trkpt lat="46.89897" lon="-0.8849">
        <ele>170</ele>
        <time>2021-05-15T14:40:47Z</time>
      </trkpt>
      <trkpt lat="46.89913" lon="-0.88574">
        <ele>170</ele>
        <time>2021-05-15T14:42:07Z</time>
      </trkpt>
      <trkpt lat="46.89927" lon="-0.88593">
        <ele>171</ele>
        <time>2021-05-15T14:42:32Z</time>
      </trkpt>
      <trkpt lat="46.89983" lon="-0.88586">
        <ele>173</ele>
        <time>2021-05-15T14:43:47Z</time>
      </trkpt>
      <trkpt lat="46.90018" lon="-0.88568">
        <ele>176</ele>
        <time>2021-05-15T14:44:37Z</time>
      </trkpt>
      <trkpt lat="46.90088" lon="-0.88593">
        <ele>182</ele>
        <time>2021-05-15T14:46:13Z</time>
      </trkpt>
      <trkpt lat="46.90103" lon="-0.88602">
        <ele>181</ele>
        <time>2021-05-15T14:46:35Z</time>
      </trkpt>
      <trkpt lat="46.90133" lon="-0.88503">
        <ele>181</ele>
        <time>2021-05-15T14:48:13Z</time>
      </trkpt>
      <trkpt lat="46.90132" lon="-0.8848">
        <ele>180</ele>
        <time>2021-05-15T14:48:34Z</time>
      </trkpt>
      <trkpt lat="46.90134" lon="-0.88496">
        <ele>180</ele>
        <time>2021-05-15T14:48:49Z</time>
      </trkpt>
      <trkpt lat="46.90138" lon="-0.88499">
        <ele>181</ele>
        <time>2021-05-15T14:48:55Z</time>
      </trkpt>
      <trkpt lat="46.90148" lon="-0.88485">
        <ele>180</ele>
        <time>2021-05-15T14:49:14Z</time>
      </trkpt>
      <trkpt lat="46.90155" lon="-0.88467">
        <ele>180</ele>
        <time>2021-05-15T14:49:32Z</time>
      </trkpt>
      <trkpt lat="46.90168" lon="-0.88451">
        <ele>180</ele>
        <time>2021-05-15T14:49:55Z</time>
      </trkpt>
      <trkpt lat="46.90211" lon="-0.88376">
        <ele>176</ele>
        <time>2021-05-15T14:51:24Z</time>
      </trkpt>
      <trkpt lat="46.90286" lon="-0.88273">
        <ele>172</ele>
        <time>2021-05-15T14:53:42Z</time>
      </trkpt>
      <trkpt lat="46.90327" lon="-0.88205">
        <ele>169</ele>
        <time>2021-05-15T14:55:04Z</time>
      </trkpt>
      <trkpt lat="46.90355" lon="-0.88135">
        <ele>167</ele>
        <time>2021-05-15T14:56:18Z</time>
      </trkpt>
      <trkpt lat="46.90363" lon="-0.88091">
        <ele>167</ele>
        <time>2021-05-15T14:57:00Z</time>
      </trkpt>
      <trkpt lat="46.90382" lon="-0.88033">
        <ele>168</ele>
        <time>2021-05-15T14:57:58Z</time>
      </trkpt>
      <trkpt lat="46.90407" lon="-0.88015">
        <ele>166</ele>
        <time>2021-05-15T14:58:36Z</time>
      </trkpt>
      <trkpt lat="46.90432" lon="-0.88004">
        <ele>166</ele>
        <time>2021-05-15T14:59:10Z</time>
      </trkpt>
      <trkpt lat="46.9045" lon="-0.8799">
        <ele>167</ele>
        <time>2021-05-15T14:59:38Z</time>
      </trkpt>
      <trkpt lat="46.90503" lon="-0.87957">
        <ele>169</ele>
        <time>2021-05-15T15:00:55Z</time>
      </trkpt>
      <trkpt lat="46.90555" lon="-0.87878">
        <ele>171</ele>
        <time>2021-05-15T15:02:35Z</time>
      </trkpt>
      <trkpt lat="46.90576" lon="-0.87828">
        <ele>173</ele>
        <time>2021-05-15T15:03:28Z</time>
      </trkpt>
      <trkpt lat="46.90621" lon="-0.87755">
        <ele>172</ele>
        <time>2021-05-15T15:04:58Z</time>
      </trkpt>
      <trkpt lat="46.90637" lon="-0.87731">
        <ele>171</ele>
        <time>2021-05-15T15:05:28Z</time>
      </trkpt>
      <trkpt lat="46.90733" lon="-0.87611">
        <ele>167</ele>
        <time>2021-05-15T15:08:17Z</time>
      </trkpt>
      <trkpt lat="46.90774" lon="-0.87588">
        <ele>165</ele>
        <time>2021-05-15T15:09:15Z</time>
      </trkpt>
      <trkpt lat="46.9084" lon="-0.87544">
        <ele>159</ele>
        <time>2021-05-15T15:10:52Z</time>
      </trkpt>
      <trkpt lat="46.9086" lon="-0.87526">
        <ele>157</ele>
        <time>2021-05-15T15:11:23Z</time>
      </trkpt>
      <trkpt lat="46.90913" lon="-0.87488">
        <ele>151</ele>
        <time>2021-05-15T15:12:42Z</time>
      </trkpt>
      <trkpt lat="46.9095" lon="-0.8748">
        <ele>145</ele>
        <time>2021-05-15T15:13:32Z</time>
      </trkpt>
      <trkpt lat="46.90974" lon="-0.87461">
        <ele>141</ele>
        <time>2021-05-15T15:14:09Z</time>
      </trkpt>
      <trkpt lat="46.91" lon="-0.87429">
        <ele>138</ele>
        <time>2021-05-15T15:14:54Z</time>
      </trkpt>
      <trkpt lat="46.91006" lon="-0.87416">
        <ele>138</ele>
        <time>2021-05-15T15:15:08Z</time>
      </trkpt>
      <trkpt lat="46.91023" lon="-0.87391">
        <ele>136</ele>
        <time>2021-05-15T15:15:40Z</time>
      </trkpt>
      <trkpt lat="46.91035" lon="-0.87352">
        <ele>135</ele>
        <time>2021-05-15T15:16:19Z</time>
      </trkpt>
      <trkpt lat="46.91038" lon="-0.87334">
        <ele>134</ele>
        <time>2021-05-15T15:16:36Z</time>
      </trkpt>
      <trkpt lat="46.9104" lon="-0.87289">
        <ele>132</ele>
        <time>2021-05-15T15:17:17Z</time>
      </trkpt>
      <trkpt lat="46.91022" lon="-0.87249">
        <ele>132</ele>
        <time>2021-05-15T15:18:01Z</time>
      </trkpt>
      <trkpt lat="46.91015" lon="-0.87217">
        <ele>133</ele>
        <time>2021-05-15T15:18:32Z</time>
      </trkpt>
      <trkpt lat="46.91024" lon="-0.87187">
        <ele>133</ele>
        <time>2021-05-15T15:19:01Z</time>
      </trkpt>
      <trkpt lat="46.91036" lon="-0.87182">
        <ele>132</ele>
        <time>2021-05-15T15:19:18Z</time>
      </trkpt>
      <trkpt lat="46.91057" lon="-0.87158">
        <ele>130</ele>
        <time>2021-05-15T15:19:54Z</time>
      </trkpt>
      <trkpt lat="46.91071" lon="-0.87163">
        <ele>128</ele>
        <time>2021-05-15T15:20:13Z</time>
      </trkpt>
      <trkpt lat="46.91113" lon="-0.87163">
        <ele>126</ele>
        <time>2021-05-15T15:21:09Z</time>
      </trkpt>
      <trkpt lat="46.91133" lon="-0.87149">
        <ele>126</ele>
        <time>2021-05-15T15:21:39Z</time>
      </trkpt>
      <trkpt lat="46.91146" lon="-0.87145">
        <ele>126</ele>
        <time>2021-05-15T15:21:56Z</time>
      </trkpt>
      <trkpt lat="46.91155" lon="-0.87132">
        <ele>125</ele>
        <time>2021-05-15T15:22:13Z</time>
      </trkpt>
      <trkpt lat="46.91149" lon="-0.87114">
        <ele>126</ele>
        <time>2021-05-15T15:22:31Z</time>
      </trkpt>
      <trkpt lat="46.91154" lon="-0.87101">
        <ele>126</ele>
        <time>2021-05-15T15:22:45Z</time>
      </trkpt>
      <trkpt lat="46.9115" lon="-0.87071">
        <ele>126</ele>
        <time>2021-05-15T15:23:13Z</time>
      </trkpt>
      <trkpt lat="46.91155" lon="-0.87013">
        <ele>126</ele>
        <time>2021-05-15T15:24:06Z</time>
      </trkpt>
      <trkpt lat="46.91145" lon="-0.8698">
        <ele>128</ele>
        <time>2021-05-15T15:24:39Z</time>
      </trkpt>
      <trkpt lat="46.91138" lon="-0.86962">
        <ele>128</ele>
        <time>2021-05-15T15:24:58Z</time>
      </trkpt>
      <trkpt lat="46.91117" lon="-0.86922">
        <ele>130</ele>
        <time>2021-05-15T15:25:44Z</time>
      </trkpt>
      <trkpt lat="46.91093" lon="-0.86857">
        <ele>130</ele>
        <time>2021-05-15T15:26:51Z</time>
      </trkpt>
      <trkpt lat="46.91078" lon="-0.86851">
        <ele>131</ele>
        <time>2021-05-15T15:27:12Z</time>
      </trkpt>
      <trkpt lat="46.91075" lon="-0.86847">
        <ele>131</ele>
        <time>2021-05-15T15:27:17Z</time>
      </trkpt>
      <trkpt lat="46.91055" lon="-0.86794">
        <ele>130</ele>
        <time>2021-05-15T15:28:13Z</time>
      </trkpt>
      <trkpt lat="46.9104" lon="-0.86767">
        <ele>129</ele>
        <time>2021-05-15T15:28:44Z</time>
      </trkpt>
      <trkpt lat="46.91031" lon="-0.86757">
        <ele>128</ele>
        <time>2021-05-15T15:28:59Z</time>
      </trkpt>
      <trkpt lat="46.9102" lon="-0.86735">
        <ele>127</ele>
        <time>2021-05-15T15:29:24Z</time>
      </trkpt>
      <trkpt lat="46.91024" lon="-0.86711">
        <ele>127</ele>
        <time>2021-05-15T15:29:47Z</time>
      </trkpt>
      <trkpt lat="46.91088" lon="-0.86579">
        <ele>129</ele>
        <time>2021-05-15T15:32:14Z</time>
      </trkpt>
      <trkpt lat="46.91103" lon="-0.86558">
        <ele>133</ele>
        <time>2021-05-15T15:32:42Z</time>
      </trkpt>
      <trkpt lat="46.91113" lon="-0.86568">
        <ele>133</ele>
        <time>2021-05-15T15:32:58Z</time>
      </trkpt>
      <trkpt lat="46.91118" lon="-0.86586">
        <ele>132</ele>
        <time>2021-05-15T15:33:16Z</time>
      </trkpt>
      <trkpt lat="46.91126" lon="-0.8665">
        <ele>132</ele>
        <time>2021-05-15T15:34:15Z</time>
      </trkpt>
      <trkpt lat="46.91125" lon="-0.86669">
        <ele>131</ele>
        <time>2021-05-15T15:34:33Z</time>
      </trkpt>
      <trkpt lat="46.9112" lon="-0.86679">
        <ele>131</ele>
        <time>2021-05-15T15:34:44Z</time>
      </trkpt>
      <trkpt lat="46.91121" lon="-0.86691">
        <ele>130</ele>
        <time>2021-05-15T15:34:55Z</time>
      </trkpt>
      <trkpt lat="46.91123" lon="-0.8669">
        <ele>131</ele>
        <time>2021-05-15T15:34:58Z</time>
      </trkpt>
      <trkpt lat="46.91122" lon="-0.86667">
        <ele>131</ele>
        <time>2021-05-15T15:35:19Z</time>
      </trkpt>
      <trkpt lat="46.9112" lon="-0.86665">
        <ele>131</ele>
        <time>2021-05-15T15:35:22Z</time>
      </trkpt>
      <trkpt lat="46.91127" lon="-0.86666">
        <ele>132</ele>
        <time>2021-05-15T15:35:31Z</time>
      </trkpt>
      <trkpt lat="46.91127" lon="-0.86662">
        <ele>132</ele>
        <time>2021-05-15T15:35:35Z</time>
      </trkpt>
      <trkpt lat="46.91108" lon="-0.86656">
        <ele>130</ele>
        <time>2021-05-15T15:36:01Z</time>
      </trkpt>
      <trkpt lat="46.91093" lon="-0.86644">
        <ele>129</ele>
        <time>2021-05-15T15:36:24Z</time>
      </trkpt>
      <trkpt lat="46.91097" lon="-0.86644">
        <ele>129</ele>
        <time>2021-05-15T15:36:29Z</time>
      </trkpt>
      <trkpt lat="46.9109" lon="-0.86649">
        <ele>129</ele>
        <time>2021-05-15T15:36:40Z</time>
      </trkpt>
      <trkpt lat="46.91094" lon="-0.86649">
        <ele>129</ele>
        <time>2021-05-15T15:36:45Z</time>
      </trkpt>
      <trkpt lat="46.91094" lon="-0.86646">
        <ele>129</ele>
        <time>2021-05-15T15:36:48Z</time>
      </trkpt>
      <trkpt lat="46.9111" lon="-0.86647">
        <ele>130</ele>
        <time>2021-05-15T15:37:09Z</time>
      </trkpt>
      <trkpt lat="46.9112" lon="-0.86645">
        <ele>131</ele>
        <time>2021-05-15T15:37:22Z</time>
      </trkpt>
      <trkpt lat="46.9112" lon="-0.86647">
        <ele>131</ele>
        <time>2021-05-15T15:37:24Z</time>
      </trkpt>
      <trkpt lat="46.91131" lon="-0.8664">
        <ele>132</ele>
        <time>2021-05-15T15:37:40Z</time>
      </trkpt>
      <trkpt lat="46.9113" lon="-0.86635">
        <ele>132</ele>
        <time>2021-05-15T15:37:45Z</time>
      </trkpt>
      <trkpt lat="46.91132" lon="-0.86634">
        <ele>133</ele>
        <time>2021-05-15T15:37:48Z</time>
      </trkpt>
      <trkpt lat="46.91138" lon="-0.86642">
        <ele>133</ele>
        <time>2021-05-15T15:37:59Z</time>
      </trkpt>
      <trkpt lat="46.91123" lon="-0.86652">
        <ele>131</ele>
        <time>2021-05-15T15:38:21Z</time>
      </trkpt>
      <trkpt lat="46.91125" lon="-0.86654">
        <ele>132</ele>
        <time>2021-05-15T15:38:24Z</time>
      </trkpt>
      <trkpt lat="46.91122" lon="-0.86653">
        <ele>131</ele>
        <time>2021-05-15T15:38:28Z</time>
      </trkpt>
      <trkpt lat="46.9112" lon="-0.86675">
        <ele>131</ele>
        <time>2021-05-15T15:38:48Z</time>
      </trkpt>
      <trkpt lat="46.91123" lon="-0.86674">
        <ele>131</ele>
        <time>2021-05-15T15:38:52Z</time>
      </trkpt>
      <trkpt lat="46.9111" lon="-0.8666">
        <ele>130</ele>
        <time>2021-05-15T15:39:14Z</time>
      </trkpt>
      <trkpt lat="46.91111" lon="-0.86664">
        <ele>130</ele>
        <time>2021-05-15T15:39:18Z</time>
      </trkpt>
      <trkpt lat="46.91114" lon="-0.86652">
        <ele>131</ele>
        <time>2021-05-15T15:39:29Z</time>
      </trkpt>
      <trkpt lat="46.91107" lon="-0.86651">
        <ele>130</ele>
        <time>2021-05-15T15:39:39Z</time>
      </trkpt>
      <trkpt lat="46.91097" lon="-0.86658">
        <ele>129</ele>
        <time>2021-05-15T15:39:54Z</time>
      </trkpt>
      <trkpt lat="46.91095" lon="-0.86669">
        <ele>129</ele>
        <time>2021-05-15T15:40:04Z</time>
      </trkpt>
      <trkpt lat="46.91133" lon="-0.86665">
        <ele>132</ele>
        <time>2021-05-15T15:40:55Z</time>
      </trkpt>
      <trkpt lat="46.91116" lon="-0.86668">
        <ele>131</ele>
        <time>2021-05-15T15:41:18Z</time>
      </trkpt>
      <trkpt lat="46.91117" lon="-0.8668">
        <ele>130</ele>
        <time>2021-05-15T15:41:29Z</time>
      </trkpt>
      <trkpt lat="46.9111" lon="-0.86686">
        <ele>130</ele>
        <time>2021-05-15T15:41:40Z</time>
      </trkpt>
      <trkpt lat="46.91108" lon="-0.86683">
        <ele>130</ele>
        <time>2021-05-15T15:41:43Z</time>
      </trkpt>
      <trkpt lat="46.91104" lon="-0.86686">
        <ele>129</ele>
        <time>2021-05-15T15:41:49Z</time>
      </trkpt>
      <trkpt lat="46.91093" lon="-0.86682">
        <ele>129</ele>
        <time>2021-05-15T15:42:04Z</time>
      </trkpt>
      <trkpt lat="46.9109" lon="-0.86683">
        <ele>128</ele>
        <time>2021-05-15T15:42:09Z</time>
      </trkpt>
      <trkpt lat="46.91096" lon="-0.86682">
        <ele>129</ele>
        <time>2021-05-15T15:42:17Z</time>
      </trkpt>
      <trkpt lat="46.91107" lon="-0.8669">
        <ele>129</ele>
        <time>2021-05-15T15:42:33Z</time>
      </trkpt>
      <trkpt lat="46.911" lon="-0.86685">
        <ele>129</ele>
        <time>2021-05-15T15:42:43Z</time>
      </trkpt>
      <trkpt lat="46.91101" lon="-0.8668">
        <ele>129</ele>
        <time>2021-05-15T15:42:48Z</time>
      </trkpt>
      <trkpt lat="46.91098" lon="-0.86689">
        <ele>129</ele>
        <time>2021-05-15T15:42:57Z</time>
      </trkpt>
      <trkpt lat="46.91103" lon="-0.86696">
        <ele>129</ele>
        <time>2021-05-15T15:43:07Z</time>
      </trkpt>
      <trkpt lat="46.911" lon="-0.86693">
        <ele>129</ele>
        <time>2021-05-15T15:43:11Z</time>
      </trkpt>
      <trkpt lat="46.91098" lon="-0.86695">
        <ele>129</ele>
        <time>2021-05-15T15:43:15Z</time>
      </trkpt>
      <trkpt lat="46.91102" lon="-0.86695">
        <ele>129</ele>
        <time>2021-05-15T15:43:20Z</time>
      </trkpt>
      <trkpt lat="46.91099" lon="-0.86691">
        <ele>129</ele>
        <time>2021-05-15T15:43:25Z</time>
      </trkpt>
      <trkpt lat="46.91109" lon="-0.86686">
        <ele>130</ele>
        <time>2021-05-15T15:43:39Z</time>
      </trkpt>
      <trkpt lat="46.91103" lon="-0.86687">
        <ele>129</ele>
        <time>2021-05-15T15:43:48Z</time>
      </trkpt>
      <trkpt lat="46.911" lon="-0.86684">
        <ele>129</ele>
        <time>2021-05-15T15:43:52Z</time>
      </trkpt>
      <trkpt lat="46.91105" lon="-0.86684">
        <ele>129</ele>
        <time>2021-05-15T15:43:59Z</time>
      </trkpt>
      <trkpt lat="46.91102" lon="-0.86685">
        <ele>129</ele>
        <time>2021-05-15T15:44:03Z</time>
      </trkpt>
      <trkpt lat="46.91108" lon="-0.86687">
        <ele>130</ele>
        <time>2021-05-15T15:44:11Z</time>
      </trkpt>
      <trkpt lat="46.91116" lon="-0.86695">
        <ele>130</ele>
        <time>2021-05-15T15:44:24Z</time>
      </trkpt>
      <trkpt lat="46.91126" lon="-0.86715">
        <ele>130</ele>
        <time>2021-05-15T15:44:47Z</time>
      </trkpt>
      <trkpt lat="46.91134" lon="-0.86722">
        <ele>130</ele>
        <time>2021-05-15T15:44:59Z</time>
      </trkpt>
      <trkpt lat="46.91148" lon="-0.86731">
        <ele>130</ele>
        <time>2021-05-15T15:45:20Z</time>
      </trkpt>
      <trkpt lat="46.91164" lon="-0.86734">
        <ele>131</ele>
        <time>2021-05-15T15:45:41Z</time>
      </trkpt>
      <trkpt lat="46.91183" lon="-0.86744">
        <ele>131</ele>
        <time>2021-05-15T15:46:08Z</time>
      </trkpt>
      <trkpt lat="46.91198" lon="-0.86774">
        <ele>131</ele>
        <time>2021-05-15T15:46:42Z</time>
      </trkpt>
      <trkpt lat="46.91206" lon="-0.86806">
        <ele>131</ele>
        <time>2021-05-15T15:47:13Z</time>
      </trkpt>
      <trkpt lat="46.91214" lon="-0.86824">
        <ele>131</ele>
        <time>2021-05-15T15:47:33Z</time>
      </trkpt>
      <trkpt lat="46.91231" lon="-0.86851">
        <ele>130</ele>
        <time>2021-05-15T15:48:06Z</time>
      </trkpt>
      <trkpt lat="46.91237" lon="-0.86854">
        <ele>130</ele>
        <time>2021-05-15T15:48:15Z</time>
      </trkpt>
      <trkpt lat="46.91245" lon="-0.86864">
        <ele>130</ele>
        <time>2021-05-15T15:48:29Z</time>
      </trkpt>
      <trkpt lat="46.91257" lon="-0.86874">
        <ele>129</ele>
        <time>2021-05-15T15:48:47Z</time>
      </trkpt>
      <trkpt lat="46.91311" lon="-0.86881">
        <ele>129</ele>
        <time>2021-05-15T15:49:59Z</time>
      </trkpt>
      <trkpt lat="46.91325" lon="-0.86889">
        <ele>129</ele>
        <time>2021-05-15T15:50:20Z</time>
      </trkpt>
      <trkpt lat="46.91331" lon="-0.86898">
        <ele>128</ele>
        <time>2021-05-15T15:50:31Z</time>
      </trkpt>
      <trkpt lat="46.9134" lon="-0.86924">
        <ele>127</ele>
        <time>2021-05-15T15:50:58Z</time>
      </trkpt>
      <trkpt lat="46.91338" lon="-0.86938">
        <ele>127</ele>
        <time>2021-05-15T15:51:11Z</time>
      </trkpt>
      <trkpt lat="46.91344" lon="-0.86992">
        <ele>126</ele>
        <time>2021-05-15T15:52:00Z</time>
      </trkpt>
      <trkpt lat="46.91361" lon="-0.87013">
        <ele>126</ele>
        <time>2021-05-15T15:52:30Z</time>
      </trkpt>
      <trkpt lat="46.91423" lon="-0.8705">
        <ele>126</ele>
        <time>2021-05-15T15:53:59Z</time>
      </trkpt>
      <trkpt lat="46.91444" lon="-0.8706">
        <ele>126</ele>
        <time>2021-05-15T15:54:29Z</time>
      </trkpt>
      <trkpt lat="46.91459" lon="-0.87078">
        <ele>126</ele>
        <time>2021-05-15T15:54:55Z</time>
      </trkpt>
      <trkpt lat="46.91484" lon="-0.8712">
        <ele>125</ele>
        <time>2021-05-15T15:55:46Z</time>
      </trkpt>
      <trkpt lat="46.91494" lon="-0.8715">
        <ele>124</ele>
        <time>2021-05-15T15:56:16Z</time>
      </trkpt>
      <trkpt lat="46.915" lon="-0.87181">
        <ele>124</ele>
        <time>2021-05-15T15:56:45Z</time>
      </trkpt>
      <trkpt lat="46.91516" lon="-0.87229">
        <ele>124</ele>
        <time>2021-05-15T15:57:34Z</time>
      </trkpt>
      <trkpt lat="46.91537" lon="-0.87279">
        <ele>124</ele>
        <time>2021-05-15T15:58:28Z</time>
      </trkpt>
      <trkpt lat="46.91591" lon="-0.87338">
        <ele>124</ele>
        <time>2021-05-15T15:59:58Z</time>
      </trkpt>
      <trkpt lat="46.91611" lon="-0.87352">
        <ele>125</ele>
        <time>2021-05-15T16:00:27Z</time>
      </trkpt>
      <trkpt lat="46.91621" lon="-0.87362">
        <ele>125</ele>
        <time>2021-05-15T16:00:43Z</time>
      </trkpt>
      <trkpt lat="46.91631" lon="-0.87393">
        <ele>126</ele>
        <time>2021-05-15T16:01:15Z</time>
      </trkpt>
      <trkpt lat="46.9164" lon="-0.87402">
        <ele>126</ele>
        <time>2021-05-15T16:01:29Z</time>
      </trkpt>
      <trkpt lat="46.91737" lon="-0.87449">
        <ele>126</ele>
        <time>2021-05-15T16:03:45Z</time>
      </trkpt>
      <trkpt lat="46.91754" lon="-0.87446">
        <ele>125</ele>
        <time>2021-05-15T16:04:08Z</time>
      </trkpt>
      <trkpt lat="46.91795" lon="-0.87455">
        <ele>126</ele>
        <time>2021-05-15T16:05:04Z</time>
      </trkpt>
      <trkpt lat="46.91821" lon="-0.87454">
        <ele>126</ele>
        <time>2021-05-15T16:05:38Z</time>
      </trkpt>
      <trkpt lat="46.91893" lon="-0.87448">
        <ele>129</ele>
        <time>2021-05-15T16:07:15Z</time>
      </trkpt>
      <trkpt lat="46.9192" lon="-0.87439">
        <ele>131</ele>
        <time>2021-05-15T16:07:51Z</time>
      </trkpt>
      <trkpt lat="46.9194" lon="-0.87438">
        <ele>130</ele>
        <time>2021-05-15T16:08:18Z</time>
      </trkpt>
      <trkpt lat="46.91971" lon="-0.87412">
        <ele>130</ele>
        <time>2021-05-15T16:09:06Z</time>
      </trkpt>
      <trkpt lat="46.91997" lon="-0.87378">
        <ele>130</ele>
        <time>2021-05-15T16:09:52Z</time>
      </trkpt>
      <trkpt lat="46.92042" lon="-0.87356">
        <ele>129</ele>
        <time>2021-05-15T16:10:56Z</time>
      </trkpt>
      <trkpt lat="46.92082" lon="-0.87329">
        <ele>128</ele>
        <time>2021-05-15T16:11:54Z</time>
      </trkpt>
      <trkpt lat="46.92098" lon="-0.87335">
        <ele>127</ele>
        <time>2021-05-15T16:12:17Z</time>
      </trkpt>
      <trkpt lat="46.9212" lon="-0.87327">
        <ele>127</ele>
        <time>2021-05-15T16:12:47Z</time>
      </trkpt>
      <trkpt lat="46.92134" lon="-0.87331">
        <ele>127</ele>
        <time>2021-05-15T16:13:06Z</time>
      </trkpt>
      <trkpt lat="46.92144" lon="-0.8734">
        <ele>127</ele>
        <time>2021-05-15T16:13:21Z</time>
      </trkpt>
      <trkpt lat="46.92145" lon="-0.87356">
        <ele>127</ele>
        <time>2021-05-15T16:13:36Z</time>
      </trkpt>
      <trkpt lat="46.9215" lon="-0.87369">
        <ele>128</ele>
        <time>2021-05-15T16:13:50Z</time>
      </trkpt>
      <trkpt lat="46.92166" lon="-0.87394">
        <ele>129</ele>
        <time>2021-05-15T16:14:21Z</time>
      </trkpt>
      <trkpt lat="46.92189" lon="-0.874">
        <ele>128</ele>
        <time>2021-05-15T16:14:52Z</time>
      </trkpt>
      <trkpt lat="46.9222" lon="-0.87401">
        <ele>127</ele>
        <time>2021-05-15T16:15:33Z</time>
      </trkpt>
      <trkpt lat="46.92231" lon="-0.87404">
        <ele>127</ele>
        <time>2021-05-15T16:15:48Z</time>
      </trkpt>
      <trkpt lat="46.92236" lon="-0.87398">
        <ele>127</ele>
        <time>2021-05-15T16:15:57Z</time>
      </trkpt>
      <trkpt lat="46.92232" lon="-0.87393">
        <ele>127</ele>
        <time>2021-05-15T16:16:04Z</time>
      </trkpt>
      <trkpt lat="46.92235" lon="-0.8739">
        <ele>127</ele>
        <time>2021-05-15T16:16:09Z</time>
      </trkpt>
      <trkpt lat="46.92232" lon="-0.87392">
        <ele>127</ele>
        <time>2021-05-15T16:16:13Z</time>
      </trkpt>
      <trkpt lat="46.92232" lon="-0.87388">
        <ele>127</ele>
        <time>2021-05-15T16:16:17Z</time>
      </trkpt>
      <trkpt lat="46.92226" lon="-0.87401">
        <ele>127</ele>
        <time>2021-05-15T16:16:31Z</time>
      </trkpt>
      <trkpt lat="46.92222" lon="-0.87444">
        <ele>132</ele>
        <time>2021-05-15T16:17:11Z</time>
      </trkpt>
      <trkpt lat="46.92228" lon="-0.87467">
        <ele>135</ele>
        <time>2021-05-15T16:17:33Z</time>
      </trkpt>
      <trkpt lat="46.92252" lon="-0.87467">
        <ele>134</ele>
        <time>2021-05-15T16:18:05Z</time>
      </trkpt>
      <trkpt lat="46.92282" lon="-0.87448">
        <ele>133</ele>
        <time>2021-05-15T16:18:49Z</time>
      </trkpt>
      <trkpt lat="46.92378" lon="-0.87421">
        <ele>134</ele>
        <time>2021-05-15T16:20:59Z</time>
      </trkpt>
      <trkpt lat="46.92389" lon="-0.87426">
        <ele>134</ele>
        <time>2021-05-15T16:21:15Z</time>
      </trkpt>
      <trkpt lat="46.92444" lon="-0.87423">
        <ele>134</ele>
        <time>2021-05-15T16:22:28Z</time>
      </trkpt>
      <trkpt lat="46.92467" lon="-0.87415">
        <ele>132</ele>
        <time>2021-05-15T16:23:00Z</time>
      </trkpt>
      <trkpt lat="46.92491" lon="-0.87418">
        <ele>132</ele>
        <time>2021-05-15T16:23:32Z</time>
      </trkpt>
      <trkpt lat="46.92511" lon="-0.87416">
        <ele>132</ele>
        <time>2021-05-15T16:23:59Z</time>
      </trkpt>
      <trkpt lat="46.92513" lon="-0.87413">
        <ele>132</ele>
        <time>2021-05-15T16:24:02Z</time>
      </trkpt>
      <trkpt lat="46.92542" lon="-0.87406">
        <ele>131</ele>
        <time>2021-05-15T16:24:42Z</time>
      </trkpt>
      <trkpt lat="46.92563" lon="-0.87409">
        <ele>132</ele>
        <time>2021-05-15T16:25:10Z</time>
      </trkpt>
      <trkpt lat="46.92581" lon="-0.87422">
        <ele>134</ele>
        <time>2021-05-15T16:25:37Z</time>
      </trkpt>
      <trkpt lat="46.92593" lon="-0.87434">
        <ele>136</ele>
        <time>2021-05-15T16:25:56Z</time>
      </trkpt>
      <trkpt lat="46.92611" lon="-0.8744">
        <ele>137</ele>
        <time>2021-05-15T16:26:21Z</time>
      </trkpt>
      <trkpt lat="46.92649" lon="-0.8744">
        <ele>137</ele>
        <time>2021-05-15T16:27:11Z</time>
      </trkpt>
      <trkpt lat="46.9267" lon="-0.87431">
        <ele>136</ele>
        <time>2021-05-15T16:27:41Z</time>
      </trkpt>
      <trkpt lat="46.92709" lon="-0.8738">
        <ele>132</ele>
        <time>2021-05-15T16:28:50Z</time>
      </trkpt>
      <trkpt lat="46.92725" lon="-0.87354">
        <ele>130</ele>
        <time>2021-05-15T16:29:22Z</time>
      </trkpt>
      <trkpt lat="46.9274" lon="-0.87336">
        <ele>128</ele>
        <time>2021-05-15T16:29:48Z</time>
      </trkpt>
      <trkpt lat="46.92764" lon="-0.87316">
        <ele>126</ele>
        <time>2021-05-15T16:30:25Z</time>
      </trkpt>
      <trkpt lat="46.92793" lon="-0.87318">
        <ele>126</ele>
        <time>2021-05-15T16:31:04Z</time>
      </trkpt>
      <trkpt lat="46.92817" lon="-0.87323">
        <ele>126</ele>
        <time>2021-05-15T16:31:36Z</time>
      </trkpt>
      <trkpt lat="46.92845" lon="-0.87318">
        <ele>126</ele>
        <time>2021-05-15T16:32:14Z</time>
      </trkpt>
      <trkpt lat="46.92864" lon="-0.87307">
        <ele>127</ele>
        <time>2021-05-15T16:32:41Z</time>
      </trkpt>
      <trkpt lat="46.9289" lon="-0.87232">
        <ele>127</ele>
        <time>2021-05-15T16:33:58Z</time>
      </trkpt>
      <trkpt lat="46.92908" lon="-0.87189">
        <ele>130</ele>
        <time>2021-05-15T16:34:44Z</time>
      </trkpt>
      <trkpt lat="46.92915" lon="-0.87152">
        <ele>131</ele>
        <time>2021-05-15T16:35:19Z</time>
      </trkpt>
      <trkpt lat="46.92916" lon="-0.87092">
        <ele>130</ele>
        <time>2021-05-15T16:36:13Z</time>
      </trkpt>
      <trkpt lat="46.92911" lon="-0.8707">
        <ele>130</ele>
        <time>2021-05-15T16:36:34Z</time>
      </trkpt>
      <trkpt lat="46.92888" lon="-0.87022">
        <ele>128</ele>
        <time>2021-05-15T16:37:28Z</time>
      </trkpt>
      <trkpt lat="46.92882" lon="-0.86997">
        <ele>127</ele>
        <time>2021-05-15T16:37:52Z</time>
      </trkpt>
      <trkpt lat="46.9289" lon="-0.86976">
        <ele>127</ele>
        <time>2021-05-15T16:38:14Z</time>
      </trkpt>
      <trkpt lat="46.92919" lon="-0.86928">
        <ele>129</ele>
        <time>2021-05-15T16:39:12Z</time>
      </trkpt>
      <trkpt lat="46.92938" lon="-0.8691">
        <ele>130</ele>
        <time>2021-05-15T16:39:42Z</time>
      </trkpt>
      <trkpt lat="46.92962" lon="-0.86903">
        <ele>131</ele>
        <time>2021-05-15T16:40:15Z</time>
      </trkpt>
      <trkpt lat="46.9298" lon="-0.86926">
        <ele>134</ele>
        <time>2021-05-15T16:40:47Z</time>
      </trkpt>
      <trkpt lat="46.93008" lon="-0.86945">
        <ele>136</ele>
        <time>2021-05-15T16:41:28Z</time>
      </trkpt>
      <trkpt lat="46.9302" lon="-0.86949">
        <ele>135</ele>
        <time>2021-05-15T16:41:45Z</time>
      </trkpt>
      <trkpt lat="46.93098" lon="-0.8694">
        <ele>128</ele>
        <time>2021-05-15T16:43:29Z</time>
      </trkpt>
      <trkpt lat="46.93129" lon="-0.86953">
        <ele>126</ele>
        <time>2021-05-15T16:44:12Z</time>
      </trkpt>
      <trkpt lat="46.93138" lon="-0.86953">
        <ele>125</ele>
        <time>2021-05-15T16:44:24Z</time>
      </trkpt>
      <trkpt lat="46.93164" lon="-0.86945">
        <ele>122</ele>
        <time>2021-05-15T16:45:00Z</time>
      </trkpt>
      <trkpt lat="46.93184" lon="-0.86949">
        <ele>122</ele>
        <time>2021-05-15T16:45:26Z</time>
      </trkpt>
      <trkpt lat="46.93255" lon="-0.86954">
        <ele>120</ele>
        <time>2021-05-15T16:47:01Z</time>
      </trkpt>
      <trkpt lat="46.93272" lon="-0.86961">
        <ele>120</ele>
        <time>2021-05-15T16:47:25Z</time>
      </trkpt>
      <trkpt lat="46.93276" lon="-0.8697">
        <ele>120</ele>
        <time>2021-05-15T16:47:35Z</time>
      </trkpt>
      <trkpt lat="46.933" lon="-0.87088">
        <ele>126</ele>
        <time>2021-05-15T16:49:27Z</time>
      </trkpt>
      <trkpt lat="46.93315" lon="-0.87114">
        <ele>127</ele>
        <time>2021-05-15T16:49:58Z</time>
      </trkpt>
      <trkpt lat="46.93323" lon="-0.87139">
        <ele>128</ele>
        <time>2021-05-15T16:50:23Z</time>
      </trkpt>
      <trkpt lat="46.93325" lon="-0.87167">
        <ele>130</ele>
        <time>2021-05-15T16:50:49Z</time>
      </trkpt>
      <trkpt lat="46.93334" lon="-0.87199">
        <ele>132</ele>
        <time>2021-05-15T16:51:20Z</time>
      </trkpt>
      <trkpt lat="46.93337" lon="-0.87203">
        <ele>132</ele>
        <time>2021-05-15T16:51:26Z</time>
      </trkpt>
      <trkpt lat="46.93354" lon="-0.87211">
        <ele>132</ele>
        <time>2021-05-15T16:51:49Z</time>
      </trkpt>
      <trkpt lat="46.93379" lon="-0.87216">
        <ele>131</ele>
        <time>2021-05-15T16:52:23Z</time>
      </trkpt>
      <trkpt lat="46.93384" lon="-0.87226">
        <ele>132</ele>
        <time>2021-05-15T16:52:34Z</time>
      </trkpt>
      <trkpt lat="46.93361" lon="-0.87318">
        <ele>135</ele>
        <time>2021-05-15T16:54:04Z</time>
      </trkpt>
      <trkpt lat="46.93351" lon="-0.87339">
        <ele>136</ele>
        <time>2021-05-15T16:54:27Z</time>
      </trkpt>
      <trkpt lat="46.9335" lon="-0.87347">
        <ele>136</ele>
        <time>2021-05-15T16:54:34Z</time>
      </trkpt>
      <trkpt lat="46.93358" lon="-0.87363">
        <ele>136</ele>
        <time>2021-05-15T16:54:53Z</time>
      </trkpt>
      <trkpt lat="46.93382" lon="-0.87365">
        <ele>135</ele>
        <time>2021-05-15T16:55:25Z</time>
      </trkpt>
      <trkpt lat="46.93416" lon="-0.87379">
        <ele>134</ele>
        <time>2021-05-15T16:56:12Z</time>
      </trkpt>
      <trkpt lat="46.9344" lon="-0.87385">
        <ele>134</ele>
        <time>2021-05-15T16:56:44Z</time>
      </trkpt>
      <trkpt lat="46.93464" lon="-0.87399">
        <ele>135</ele>
        <time>2021-05-15T16:57:19Z</time>
      </trkpt>
      <trkpt lat="46.93484" lon="-0.87405">
        <ele>135</ele>
        <time>2021-05-15T16:57:46Z</time>
      </trkpt>
      <trkpt lat="46.93523" lon="-0.87427">
        <ele>137</ele>
        <time>2021-05-15T16:58:42Z</time>
      </trkpt>
      <trkpt lat="46.9354" lon="-0.87448">
        <ele>137</ele>
        <time>2021-05-15T16:59:11Z</time>
      </trkpt>
      <trkpt lat="46.93544" lon="-0.87476">
        <ele>136</ele>
        <time>2021-05-15T16:59:37Z</time>
      </trkpt>
      <trkpt lat="46.93541" lon="-0.87489">
        <ele>136</ele>
        <time>2021-05-15T16:59:50Z</time>
      </trkpt>
      <trkpt lat="46.93518" lon="-0.87484">
        <ele>137</ele>
        <time>2021-05-15T17:00:21Z</time>
      </trkpt>
      <trkpt lat="46.93498" lon="-0.87497">
        <ele>137</ele>
        <time>2021-05-15T17:00:50Z</time>
      </trkpt>
      <trkpt lat="46.93495" lon="-0.87509">
        <ele>136</ele>
        <time>2021-05-15T17:01:02Z</time>
      </trkpt>
      <trkpt lat="46.93497" lon="-0.87512">
        <ele>136</ele>
        <time>2021-05-15T17:01:06Z</time>
      </trkpt>
      <trkpt lat="46.93498" lon="-0.87531">
        <ele>135</ele>
        <time>2021-05-15T17:01:23Z</time>
      </trkpt>
      <trkpt lat="46.93513" lon="-0.8755">
        <ele>135</ele>
        <time>2021-05-15T17:01:49Z</time>
      </trkpt>
      <trkpt lat="46.93545" lon="-0.87583">
        <ele>134</ele>
        <time>2021-05-15T17:02:42Z</time>
      </trkpt>
      <trkpt lat="46.93564" lon="-0.87591">
        <ele>134</ele>
        <time>2021-05-15T17:03:08Z</time>
      </trkpt>
      <trkpt lat="46.93621" lon="-0.87644">
        <ele>137</ele>
        <time>2021-05-15T17:04:38Z</time>
      </trkpt>
      <trkpt lat="46.93628" lon="-0.87648">
        <ele>137</ele>
        <time>2021-05-15T17:04:48Z</time>
      </trkpt>
      <trkpt lat="46.93628" lon="-0.87646">
        <ele>137</ele>
        <time>2021-05-15T17:04:50Z</time>
      </trkpt>
      <trkpt lat="46.93627" lon="-0.87648">
        <ele>137</ele>
        <time>2021-05-15T17:04:52Z</time>
      </trkpt>
      <trkpt lat="46.9364" lon="-0.87658">
        <ele>138</ele>
        <time>2021-05-15T17:05:12Z</time>
      </trkpt>
      <trkpt lat="46.9365" lon="-0.87671">
        <ele>139</ele>
        <time>2021-05-15T17:05:30Z</time>
      </trkpt>
      <trkpt lat="46.93661" lon="-0.87703">
        <ele>140</ele>
        <time>2021-05-15T17:06:02Z</time>
      </trkpt>
      <trkpt lat="46.93674" lon="-0.87801">
        <ele>141</ele>
        <time>2021-05-15T17:07:33Z</time>
      </trkpt>
      <trkpt lat="46.93686" lon="-0.87833">
        <ele>140</ele>
        <time>2021-05-15T17:08:07Z</time>
      </trkpt>
      <trkpt lat="46.93732" lon="-0.87928">
        <ele>139</ele>
        <time>2021-05-15T17:09:53Z</time>
      </trkpt>
      <trkpt lat="46.93751" lon="-0.88025">
        <ele>140</ele>
        <time>2021-05-15T17:11:25Z</time>
      </trkpt>
      <trkpt lat="46.93762" lon="-0.88044">
        <ele>140</ele>
        <time>2021-05-15T17:11:47Z</time>
      </trkpt>
      <trkpt lat="46.93795" lon="-0.88067">
        <ele>139</ele>
        <time>2021-05-15T17:12:36Z</time>
      </trkpt>
      <trkpt lat="46.93819" lon="-0.88087">
        <ele>139</ele>
        <time>2021-05-15T17:13:13Z</time>
      </trkpt>
      <trkpt lat="46.93857" lon="-0.88133">
        <ele>137</ele>
        <time>2021-05-15T17:14:19Z</time>
      </trkpt>
      <trkpt lat="46.93874" lon="-0.8816">
        <ele>137</ele>
        <time>2021-05-15T17:14:52Z</time>
      </trkpt>
      <trkpt lat="46.93895" lon="-0.88225">
        <ele>139</ele>
        <time>2021-05-15T17:15:58Z</time>
      </trkpt>
      <trkpt lat="46.93905" lon="-0.88248">
        <ele>140</ele>
        <time>2021-05-15T17:16:23Z</time>
      </trkpt>
      <trkpt lat="46.93922" lon="-0.88267">
        <ele>142</ele>
        <time>2021-05-15T17:16:51Z</time>
      </trkpt>
      <trkpt lat="46.93961" lon="-0.88293">
        <ele>148</ele>
        <time>2021-05-15T17:17:48Z</time>
      </trkpt>
      <trkpt lat="46.94081" lon="-0.88382">
        <ele>163</ele>
        <time>2021-05-15T17:20:48Z</time>
      </trkpt>
      <trkpt lat="46.94104" lon="-0.88391">
        <ele>164</ele>
        <time>2021-05-15T17:21:20Z</time>
      </trkpt>
      <trkpt lat="46.94135" lon="-0.88399">
        <ele>166</ele>
        <time>2021-05-15T17:22:02Z</time>
      </trkpt>
      <trkpt lat="46.94158" lon="-0.88411">
        <ele>167</ele>
        <time>2021-05-15T17:22:34Z</time>
      </trkpt>
      <trkpt lat="46.94223" lon="-0.88477">
        <ele>166</ele>
        <time>2021-05-15T17:24:20Z</time>
      </trkpt>
      <trkpt lat="46.94267" lon="-0.88542">
        <ele>165</ele>
        <time>2021-05-15T17:25:43Z</time>
      </trkpt>
      <trkpt lat="46.94285" lon="-0.88575">
        <ele>165</ele>
        <time>2021-05-15T17:26:22Z</time>
      </trkpt>
      <trkpt lat="46.94319" lon="-0.88648">
        <ele>166</ele>
        <time>2021-05-15T17:27:42Z</time>
      </trkpt>
      <trkpt lat="46.94314" lon="-0.88656">
        <ele>166</ele>
        <time>2021-05-15T17:27:52Z</time>
      </trkpt>
      <trkpt lat="46.94312" lon="-0.88669">
        <ele>166</ele>
        <time>2021-05-15T17:28:04Z</time>
      </trkpt>
      <trkpt lat="46.94286" lon="-0.88717">
        <ele>167</ele>
        <time>2021-05-15T17:29:00Z</time>
      </trkpt>
      <trkpt lat="46.94281" lon="-0.88736">
        <ele>167</ele>
        <time>2021-05-15T17:29:19Z</time>
      </trkpt>
      <trkpt lat="46.94292" lon="-0.88792">
        <ele>167</ele>
        <time>2021-05-15T17:30:12Z</time>
      </trkpt>
      <trkpt lat="46.94299" lon="-0.88853">
        <ele>167</ele>
        <time>2021-05-15T17:31:08Z</time>
      </trkpt>
      <trkpt lat="46.94307" lon="-0.88881">
        <ele>167</ele>
        <time>2021-05-15T17:31:36Z</time>
      </trkpt>
      <trkpt lat="46.94321" lon="-0.88915">
        <ele>168</ele>
        <time>2021-05-15T17:32:12Z</time>
      </trkpt>
      <trkpt lat="46.94327" lon="-0.88943">
        <ele>169</ele>
        <time>2021-05-15T17:32:39Z</time>
      </trkpt>
      <trkpt lat="46.94333" lon="-0.88995">
        <ele>169</ele>
        <time>2021-05-15T17:33:27Z</time>
      </trkpt>
      <trkpt lat="46.9434" lon="-0.89018">
        <ele>169</ele>
        <time>2021-05-15T17:33:50Z</time>
      </trkpt>
      <trkpt lat="46.94364" lon="-0.89033">
        <ele>171</ele>
        <time>2021-05-15T17:34:24Z</time>
      </trkpt>
      <trkpt lat="46.94496" lon="-0.89089">
        <ele>175</ele>
        <time>2021-05-15T17:37:28Z</time>
      </trkpt>
      <trkpt lat="46.94503" lon="-0.89108">
        <ele>175</ele>
        <time>2021-05-15T17:37:47Z</time>
      </trkpt>
      <trkpt lat="46.94506" lon="-0.89168">
        <ele>175</ele>
        <time>2021-05-15T17:38:42Z</time>
      </trkpt>
      <trkpt lat="46.94509" lon="-0.89183">
        <ele>175</ele>
        <time>2021-05-15T17:38:56Z</time>
      </trkpt>
      <trkpt lat="46.94515" lon="-0.89205">
        <ele>175</ele>
        <time>2021-05-15T17:39:18Z</time>
      </trkpt>
      <trkpt lat="46.94532" lon="-0.89228">
        <ele>175</ele>
        <time>2021-05-15T17:39:49Z</time>
      </trkpt>
      <trkpt lat="46.94559" lon="-0.89243">
        <ele>175</ele>
        <time>2021-05-15T17:40:27Z</time>
      </trkpt>
      <trkpt lat="46.94595" lon="-0.8928">
        <ele>176</ele>
        <time>2021-05-15T17:41:26Z</time>
      </trkpt>
      <trkpt lat="46.94616" lon="-0.89295">
        <ele>177</ele>
        <time>2021-05-15T17:41:57Z</time>
      </trkpt>
      <trkpt lat="46.94634" lon="-0.89299">
        <ele>177</ele>
        <time>2021-05-15T17:42:22Z</time>
      </trkpt>
      <trkpt lat="46.94662" lon="-0.89293">
        <ele>177</ele>
        <time>2021-05-15T17:42:59Z</time>
      </trkpt>
      <trkpt lat="46.94688" lon="-0.89296">
        <ele>175</ele>
        <time>2021-05-15T17:43:34Z</time>
      </trkpt>
      <trkpt lat="46.94737" lon="-0.89323">
        <ele>175</ele>
        <time>2021-05-15T17:44:44Z</time>
      </trkpt>
      <trkpt lat="46.94737" lon="-0.89329">
        <ele>176</ele>
        <time>2021-05-15T17:44:49Z</time>
      </trkpt>
      <trkpt lat="46.94741" lon="-0.8933">
        <ele>176</ele>
        <time>2021-05-15T17:44:55Z</time>
      </trkpt>
      <trkpt lat="46.9475" lon="-0.8934">
        <ele>176</ele>
        <time>2021-05-15T17:45:10Z</time>
      </trkpt>
      <trkpt lat="46.94772" lon="-0.89351">
        <ele>175</ele>
        <time>2021-05-15T17:45:41Z</time>
      </trkpt>
      <trkpt lat="46.9482" lon="-0.89398">
        <ele>172</ele>
        <time>2021-05-15T17:46:58Z</time>
      </trkpt>
      <trkpt lat="46.94833" lon="-0.89406">
        <ele>171</ele>
        <time>2021-05-15T17:47:17Z</time>
      </trkpt>
      <trkpt lat="46.9483" lon="-0.89417">
        <ele>171</ele>
        <time>2021-05-15T17:47:28Z</time>
      </trkpt>
      <trkpt lat="46.94827" lon="-0.89418">
        <ele>172</ele>
        <time>2021-05-15T17:47:32Z</time>
      </trkpt>
      <trkpt lat="46.94829" lon="-0.89425">
        <ele>171</ele>
        <time>2021-05-15T17:47:39Z</time>
      </trkpt>
      <trkpt lat="46.94828" lon="-0.89417">
        <ele>172</ele>
        <time>2021-05-15T17:47:46Z</time>
      </trkpt>
      <trkpt lat="46.94856" lon="-0.89343">
        <ele>169</ele>
        <time>2021-05-15T17:49:03Z</time>
      </trkpt>
      <trkpt lat="46.94895" lon="-0.8922">
        <ele>166</ele>
        <time>2021-05-15T17:51:07Z</time>
      </trkpt>
      <trkpt lat="46.94897" lon="-0.89202">
        <ele>166</ele>
        <time>2021-05-15T17:51:23Z</time>
      </trkpt>
      <trkpt lat="46.94881" lon="-0.89166">
        <ele>165</ele>
        <time>2021-05-15T17:52:02Z</time>
      </trkpt>
      <trkpt lat="46.94867" lon="-0.89141">
        <ele>164</ele>
        <time>2021-05-15T17:52:32Z</time>
      </trkpt>
      <trkpt lat="46.94866" lon="-0.89107">
        <ele>164</ele>
        <time>2021-05-15T17:53:03Z</time>
      </trkpt>
      <trkpt lat="46.94895" lon="-0.8903">
        <ele>161</ele>
        <time>2021-05-15T17:54:23Z</time>
      </trkpt>
      <trkpt lat="46.94904" lon="-0.88979">
        <ele>160</ele>
        <time>2021-05-15T17:55:11Z</time>
      </trkpt>
      <trkpt lat="46.94922" lon="-0.88968">
        <ele>159</ele>
        <time>2021-05-15T17:55:37Z</time>
      </trkpt>
      <trkpt lat="46.9497" lon="-0.88949">
        <ele>157</ele>
        <time>2021-05-15T17:56:43Z</time>
      </trkpt>
      <trkpt lat="46.94986" lon="-0.88952">
        <ele>156</ele>
        <time>2021-05-15T17:57:05Z</time>
      </trkpt>
      <trkpt lat="46.94992" lon="-0.88962">
        <ele>155</ele>
        <time>2021-05-15T17:57:17Z</time>
      </trkpt>
      <trkpt lat="46.95028" lon="-0.88945">
        <ele>155</ele>
        <time>2021-05-15T17:58:08Z</time>
      </trkpt>
      <trkpt lat="46.95064" lon="-0.88951">
        <ele>155</ele>
        <time>2021-05-15T17:58:56Z</time>
      </trkpt>
      <trkpt lat="46.95107" lon="-0.89003">
        <ele>154</ele>
        <time>2021-05-15T18:00:10Z</time>
      </trkpt>
      <trkpt lat="46.95139" lon="-0.89054">
        <ele>153</ele>
        <time>2021-05-15T18:01:13Z</time>
      </trkpt>
      <trkpt lat="46.9514" lon="-0.89061">
        <ele>153</ele>
        <time>2021-05-15T18:01:20Z</time>
      </trkpt>
      <trkpt lat="46.95155" lon="-0.89093">
        <ele>152</ele>
        <time>2021-05-15T18:01:55Z</time>
      </trkpt>
      <trkpt lat="46.9518" lon="-0.89137">
        <ele>151</ele>
        <time>2021-05-15T18:02:47Z</time>
      </trkpt>
      <trkpt lat="46.95187" lon="-0.89155">
        <ele>151</ele>
        <time>2021-05-15T18:03:06Z</time>
      </trkpt>
      <trkpt lat="46.95193" lon="-0.89186">
        <ele>151</ele>
        <time>2021-05-15T18:03:36Z</time>
      </trkpt>
      <trkpt lat="46.95192" lon="-0.89214">
        <ele>152</ele>
        <time>2021-05-15T18:04:01Z</time>
      </trkpt>
      <trkpt lat="46.95186" lon="-0.89238">
        <ele>153</ele>
        <time>2021-05-15T18:04:24Z</time>
      </trkpt>
      <trkpt lat="46.95185" lon="-0.89256">
        <ele>153</ele>
        <time>2021-05-15T18:04:41Z</time>
      </trkpt>
      <trkpt lat="46.95187" lon="-0.89277">
        <ele>153</ele>
        <time>2021-05-15T18:05:00Z</time>
      </trkpt>
      <trkpt lat="46.95196" lon="-0.8932">
        <ele>153</ele>
        <time>2021-05-15T18:05:41Z</time>
      </trkpt>
      <trkpt lat="46.95195" lon="-0.89327">
        <ele>153</ele>
        <time>2021-05-15T18:05:48Z</time>
      </trkpt>
      <trkpt lat="46.95173" lon="-0.89331">
        <ele>154</ele>
        <time>2021-05-15T18:06:17Z</time>
      </trkpt>
      <trkpt lat="46.95128" lon="-0.89348">
        <ele>156</ele>
        <time>2021-05-15T18:07:19Z</time>
      </trkpt>
      <trkpt lat="46.95117" lon="-0.89346">
        <ele>157</ele>
        <time>2021-05-15T18:07:34Z</time>
      </trkpt>
      <trkpt lat="46.95113" lon="-0.89342">
        <ele>157</ele>
        <time>2021-05-15T18:07:41Z</time>
      </trkpt>
      <trkpt lat="46.95113" lon="-0.89345">
        <ele>157</ele>
        <time>2021-05-15T18:07:43Z</time>
      </trkpt>
      <trkpt lat="46.95117" lon="-0.89347">
        <ele>157</ele>
        <time>2021-05-15T18:07:49Z</time>
      </trkpt>
      <trkpt lat="46.95117" lon="-0.89353">
        <ele>157</ele>
        <time>2021-05-15T18:07:54Z</time>
      </trkpt>
      <trkpt lat="46.95118" lon="-0.89346">
        <ele>157</ele>
        <time>2021-05-15T18:08:01Z</time>
      </trkpt>
      <trkpt lat="46.95119" lon="-0.89348">
        <ele>157</ele>
        <time>2021-05-15T18:08:03Z</time>
      </trkpt>
      <trkpt lat="46.95155" lon="-0.89344">
        <ele>154</ele>
        <time>2021-05-15T18:08:51Z</time>
      </trkpt>
      <trkpt lat="46.95172" lon="-0.89338">
        <ele>154</ele>
        <time>2021-05-15T18:09:15Z</time>
      </trkpt>
      <trkpt lat="46.95182" lon="-0.89328">
        <ele>154</ele>
        <time>2021-05-15T18:09:31Z</time>
      </trkpt>
      <trkpt lat="46.95193" lon="-0.89327">
        <ele>153</ele>
        <time>2021-05-15T18:09:46Z</time>
      </trkpt>
      <trkpt lat="46.95197" lon="-0.89329">
        <ele>153</ele>
        <time>2021-05-15T18:09:51Z</time>
      </trkpt>
      <trkpt lat="46.95202" lon="-0.89338">
        <ele>153</ele>
        <time>2021-05-15T18:10:02Z</time>
      </trkpt>
      <trkpt lat="46.95216" lon="-0.89346">
        <ele>153</ele>
        <time>2021-05-15T18:10:22Z</time>
      </trkpt>
      <trkpt lat="46.9524" lon="-0.89429">
        <ele>152</ele>
        <time>2021-05-15T18:11:44Z</time>
      </trkpt>
      <trkpt lat="46.9526" lon="-0.89464">
        <ele>152</ele>
        <time>2021-05-15T18:12:26Z</time>
      </trkpt>
      <trkpt lat="46.95282" lon="-0.89542">
        <ele>152</ele>
        <time>2021-05-15T18:13:42Z</time>
      </trkpt>
      <trkpt lat="46.95295" lon="-0.89562">
        <ele>153</ele>
        <time>2021-05-15T18:14:08Z</time>
      </trkpt>
      <trkpt lat="46.95305" lon="-0.89593">
        <ele>152</ele>
        <time>2021-05-15T18:14:39Z</time>
      </trkpt>
      <trkpt lat="46.95328" lon="-0.89627">
        <ele>151</ele>
        <time>2021-05-15T18:15:22Z</time>
      </trkpt>
      <trkpt lat="46.95351" lon="-0.8965">
        <ele>150</ele>
        <time>2021-05-15T18:16:00Z</time>
      </trkpt>
      <trkpt lat="46.95359" lon="-0.89662">
        <ele>150</ele>
        <time>2021-05-15T18:16:15Z</time>
      </trkpt>
      <trkpt lat="46.95399" lon="-0.89691">
        <ele>149</ele>
        <time>2021-05-15T18:17:14Z</time>
      </trkpt>
      <trkpt lat="46.9543" lon="-0.89725">
        <ele>146</ele>
        <time>2021-05-15T18:18:06Z</time>
      </trkpt>
      <trkpt lat="46.95452" lon="-0.89736">
        <ele>145</ele>
        <time>2021-05-15T18:18:37Z</time>
      </trkpt>
      <trkpt lat="46.95492" lon="-0.89766">
        <ele>145</ele>
        <time>2021-05-15T18:19:37Z</time>
      </trkpt>
      <trkpt lat="46.95517" lon="-0.89776">
        <ele>144</ele>
        <time>2021-05-15T18:20:12Z</time>
      </trkpt>
      <trkpt lat="46.95579" lon="-0.89776">
        <ele>144</ele>
        <time>2021-05-15T18:21:34Z</time>
      </trkpt>
      <trkpt lat="46.95602" lon="-0.8978">
        <ele>143</ele>
        <time>2021-05-15T18:22:05Z</time>
      </trkpt>
      <trkpt lat="46.95602" lon="-0.89785">
        <ele>142</ele>
        <time>2021-05-15T18:22:10Z</time>
      </trkpt>
      <trkpt lat="46.95599" lon="-0.89788">
        <ele>142</ele>
        <time>2021-05-15T18:22:15Z</time>
      </trkpt>
      <trkpt lat="46.95574" lon="-0.89799">
        <ele>142</ele>
        <time>2021-05-15T18:22:49Z</time>
      </trkpt>
      <trkpt lat="46.95571" lon="-0.89813">
        <ele>141</ele>
        <time>2021-05-15T18:23:03Z</time>
      </trkpt>
      <trkpt lat="46.95563" lon="-0.89817">
        <ele>141</ele>
        <time>2021-05-15T18:23:14Z</time>
      </trkpt>
      <trkpt lat="46.95562" lon="-0.89821">
        <ele>141</ele>
        <time>2021-05-15T18:23:18Z</time>
      </trkpt>
      <trkpt lat="46.95567" lon="-0.8983">
        <ele>140</ele>
        <time>2021-05-15T18:23:29Z</time>
      </trkpt>
      <trkpt lat="46.9557" lon="-0.89852">
        <ele>139</ele>
        <time>2021-05-15T18:23:49Z</time>
      </trkpt>
      <trkpt lat="46.95574" lon="-0.89856">
        <ele>139</ele>
        <time>2021-05-15T18:23:55Z</time>
      </trkpt>
      <trkpt lat="46.95593" lon="-0.89855">
        <ele>139</ele>
        <time>2021-05-15T18:24:21Z</time>
      </trkpt>
      <trkpt lat="46.95645" lon="-0.89843">
        <ele>139</ele>
        <time>2021-05-15T18:25:31Z</time>
      </trkpt>
      <trkpt lat="46.95664" lon="-0.89844">
        <ele>139</ele>
        <time>2021-05-15T18:25:56Z</time>
      </trkpt>
      <trkpt lat="46.95666" lon="-0.89852">
        <ele>139</ele>
        <time>2021-05-15T18:26:04Z</time>
      </trkpt>
      <trkpt lat="46.95665" lon="-0.89878">
        <ele>138</ele>
        <time>2021-05-15T18:26:28Z</time>
      </trkpt>
      <trkpt lat="46.95673" lon="-0.8991">
        <ele>138</ele>
        <time>2021-05-15T18:26:59Z</time>
      </trkpt>
      <trkpt lat="46.95719" lon="-0.89941">
        <ele>137</ele>
        <time>2021-05-15T18:28:07Z</time>
      </trkpt>
      <trkpt lat="46.95779" lon="-0.89988">
        <ele>138</ele>
        <time>2021-05-15T18:29:37Z</time>
      </trkpt>
      <trkpt lat="46.95794" lon="-0.89994">
        <ele>138</ele>
        <time>2021-05-15T18:29:58Z</time>
      </trkpt>
      <trkpt lat="46.9581" lon="-0.89995">
        <ele>139</ele>
        <time>2021-05-15T18:30:19Z</time>
      </trkpt>
      <trkpt lat="46.9582" lon="-0.89991">
        <ele>139</ele>
        <time>2021-05-15T18:30:33Z</time>
      </trkpt>
      <trkpt lat="46.95821" lon="-0.89995">
        <ele>139</ele>
        <time>2021-05-15T18:30:37Z</time>
      </trkpt>
      <trkpt lat="46.95832" lon="-0.89998">
        <ele>140</ele>
        <time>2021-05-15T18:30:52Z</time>
      </trkpt>
      <trkpt lat="46.9586" lon="-0.8998">
        <ele>140</ele>
        <time>2021-05-15T18:31:33Z</time>
      </trkpt>
      <trkpt lat="46.95883" lon="-0.8997">
        <ele>140</ele>
        <time>2021-05-15T18:32:05Z</time>
      </trkpt>
      <trkpt lat="46.95898" lon="-0.89971">
        <ele>140</ele>
        <time>2021-05-15T18:32:25Z</time>
      </trkpt>
      <trkpt lat="46.95917" lon="-0.89977">
        <ele>141</ele>
        <time>2021-05-15T18:32:51Z</time>
      </trkpt>
      <trkpt lat="46.95926" lon="-0.89984">
        <ele>141</ele>
        <time>2021-05-15T18:33:05Z</time>
      </trkpt>
      <trkpt lat="46.95936" lon="-0.90017">
        <ele>142</ele>
        <time>2021-05-15T18:33:37Z</time>
      </trkpt>
      <trkpt lat="46.95954" lon="-0.90021">
        <ele>142</ele>
        <time>2021-05-15T18:34:02Z</time>
      </trkpt>
      <trkpt lat="46.95954" lon="-0.90017">
        <ele>142</ele>
        <time>2021-05-15T18:34:05Z</time>
      </trkpt>
      <trkpt lat="46.95955" lon="-0.90019">
        <ele>142</ele>
        <time>2021-05-15T18:34:08Z</time>
      </trkpt>
      <trkpt lat="46.95952" lon="-0.90017">
        <ele>142</ele>
        <time>2021-05-15T18:34:12Z</time>
      </trkpt>
      <trkpt lat="46.95955" lon="-0.90014">
        <ele>142</ele>
        <time>2021-05-15T18:34:17Z</time>
      </trkpt>
      <trkpt lat="46.95953" lon="-0.90011">
        <ele>142</ele>
        <time>2021-05-15T18:34:21Z</time>
      </trkpt>
      <trkpt lat="46.95958" lon="-0.90017">
        <ele>142</ele>
        <time>2021-05-15T18:34:29Z</time>
      </trkpt>
      <trkpt lat="46.95971" lon="-0.9002">
        <ele>143</ele>
        <time>2021-05-15T18:34:47Z</time>
      </trkpt>
      <trkpt lat="46.96004" lon="-0.90035">
        <ele>143</ele>
        <time>2021-05-15T18:35:33Z</time>
      </trkpt>
      <trkpt lat="46.96056" lon="-0.90049">
        <ele>142</ele>
        <time>2021-05-15T18:36:44Z</time>
      </trkpt>
      <trkpt lat="46.96096" lon="-0.90043">
        <ele>140</ele>
        <time>2021-05-15T18:37:37Z</time>
      </trkpt>
      <trkpt lat="46.96118" lon="-0.90051">
        <ele>139</ele>
        <time>2021-05-15T18:38:07Z</time>
      </trkpt>
      <trkpt lat="46.96138" lon="-0.90066">
        <ele>137</ele>
        <time>2021-05-15T18:38:37Z</time>
      </trkpt>
      <trkpt lat="46.96166" lon="-0.90081">
        <ele>135</ele>
        <time>2021-05-15T18:39:17Z</time>
      </trkpt>
      <trkpt lat="46.96181" lon="-0.90097">
        <ele>134</ele>
        <time>2021-05-15T18:39:42Z</time>
      </trkpt>
      <trkpt lat="46.96203" lon="-0.90103">
        <ele>133</ele>
        <time>2021-05-15T18:40:12Z</time>
      </trkpt>
      <trkpt lat="46.96242" lon="-0.90129">
        <ele>132</ele>
        <time>2021-05-15T18:41:09Z</time>
      </trkpt>
      <trkpt lat="46.96229" lon="-0.90115">
        <ele>132</ele>
        <time>2021-05-15T18:41:31Z</time>
      </trkpt>
      <trkpt lat="46.96216" lon="-0.90084">
        <ele>131</ele>
        <time>2021-05-15T18:42:04Z</time>
      </trkpt>
      <trkpt lat="46.962" lon="-0.90068">
        <ele>132</ele>
        <time>2021-05-15T18:42:30Z</time>
      </trkpt>
      <trkpt lat="46.96214" lon="-0.90061">
        <ele>131</ele>
        <time>2021-05-15T18:42:49Z</time>
      </trkpt>
      <trkpt lat="46.96227" lon="-0.90071">
        <ele>130</ele>
        <time>2021-05-15T18:43:09Z</time>
      </trkpt>
      <trkpt lat="46.96258" lon="-0.90085">
        <ele>127</ele>
        <time>2021-05-15T18:43:52Z</time>
      </trkpt>
      <trkpt lat="46.96273" lon="-0.90083">
        <ele>125</ele>
        <time>2021-05-15T18:44:12Z</time>
      </trkpt>
      <trkpt lat="46.96289" lon="-0.90092">
        <ele>124</ele>
        <time>2021-05-15T18:44:35Z</time>
      </trkpt>
      <trkpt lat="46.96312" lon="-0.90087">
        <ele>121</ele>
        <time>2021-05-15T18:45:06Z</time>
      </trkpt>
      <trkpt lat="46.96331" lon="-0.90075">
        <ele>118</ele>
        <time>2021-05-15T18:45:34Z</time>
      </trkpt>
      <trkpt lat="46.96353" lon="-0.9007">
        <ele>115</ele>
        <time>2021-05-15T18:46:03Z</time>
      </trkpt>
      <trkpt lat="46.96371" lon="-0.90059">
        <ele>113</ele>
        <time>2021-05-15T18:46:29Z</time>
      </trkpt>
      <trkpt lat="46.96397" lon="-0.90036">
        <ele>110</ele>
        <time>2021-05-15T18:47:10Z</time>
      </trkpt>
      <trkpt lat="46.9639" lon="-0.89993">
        <ele>110</ele>
        <time>2021-05-15T18:47:50Z</time>
      </trkpt>
      <trkpt lat="46.96378" lon="-0.8996">
        <ele>111</ele>
        <time>2021-05-15T18:48:24Z</time>
      </trkpt>
      <trkpt lat="46.96369" lon="-0.89909">
        <ele>111</ele>
        <time>2021-05-15T18:49:12Z</time>
      </trkpt>
      <trkpt lat="46.96354" lon="-0.89851">
        <ele>113</ele>
        <time>2021-05-15T18:50:09Z</time>
      </trkpt>
      <trkpt lat="46.96343" lon="-0.8982">
        <ele>113</ele>
        <time>2021-05-15T18:50:41Z</time>
      </trkpt>
      <trkpt lat="46.96323" lon="-0.89805">
        <ele>115</ele>
        <time>2021-05-15T18:51:11Z</time>
      </trkpt>
      <trkpt lat="46.96318" lon="-0.89811">
        <ele>116</ele>
        <time>2021-05-15T18:51:19Z</time>
      </trkpt>
      <trkpt lat="46.96323" lon="-0.89796">
        <ele>114</ele>
        <time>2021-05-15T18:51:34Z</time>
      </trkpt>
      <trkpt lat="46.96318" lon="-0.898">
        <ele>115</ele>
        <time>2021-05-15T18:51:42Z</time>
      </trkpt>
      <trkpt lat="46.96314" lon="-0.89785">
        <ele>115</ele>
        <time>2021-05-15T18:51:57Z</time>
      </trkpt>
      <trkpt lat="46.96316" lon="-0.89775">
        <ele>114</ele>
        <time>2021-05-15T18:52:06Z</time>
      </trkpt>
      <trkpt lat="46.96335" lon="-0.89731">
        <ele>113</ele>
        <time>2021-05-15T18:52:54Z</time>
      </trkpt>
      <trkpt lat="46.96344" lon="-0.89718">
        <ele>115</ele>
        <time>2021-05-15T18:53:10Z</time>
      </trkpt>
      <trkpt lat="46.96348" lon="-0.89679">
        <ele>119</ele>
        <time>2021-05-15T18:53:46Z</time>
      </trkpt>
      <trkpt lat="46.96322" lon="-0.89652">
        <ele>118</ele>
        <time>2021-05-15T18:54:29Z</time>
      </trkpt>
      <trkpt lat="46.96296" lon="-0.89634">
        <ele>117</ele>
        <time>2021-05-15T18:55:07Z</time>
      </trkpt>
      <trkpt lat="46.96295" lon="-0.89629">
        <ele>118</ele>
        <time>2021-05-15T18:55:12Z</time>
      </trkpt>
      <trkpt lat="46.96269" lon="-0.89601">
        <ele>117</ele>
        <time>2021-05-15T18:55:55Z</time>
      </trkpt>
      <trkpt lat="46.96217" lon="-0.89555">
        <ele>115</ele>
        <time>2021-05-15T18:57:16Z</time>
      </trkpt>
      <trkpt lat="46.96217" lon="-0.89547">
        <ele>116</ele>
        <time>2021-05-15T18:57:23Z</time>
      </trkpt>
      <trkpt lat="46.96221" lon="-0.89542">
        <ele>116</ele>
        <time>2021-05-15T18:57:30Z</time>
      </trkpt>
      <trkpt lat="46.96233" lon="-0.89538">
        <ele>116</ele>
        <time>2021-05-15T18:57:47Z</time>
      </trkpt>
      <trkpt lat="46.96248" lon="-0.89529">
        <ele>117</ele>
        <time>2021-05-15T18:58:08Z</time>
      </trkpt>
      <trkpt lat="46.96281" lon="-0.89495">
        <ele>120</ele>
        <time>2021-05-15T18:59:02Z</time>
      </trkpt>
      <trkpt lat="46.96313" lon="-0.89474">
        <ele>120</ele>
        <time>2021-05-15T18:59:49Z</time>
      </trkpt>
      <trkpt lat="46.96329" lon="-0.89458">
        <ele>119</ele>
        <time>2021-05-15T19:00:15Z</time>
      </trkpt>
      <trkpt lat="46.96335" lon="-0.89426">
        <ele>115</ele>
        <time>2021-05-15T19:00:45Z</time>
      </trkpt>
      <trkpt lat="46.96326" lon="-0.89335">
        <ele>111</ele>
        <time>2021-05-15T19:02:09Z</time>
      </trkpt>
      <trkpt lat="46.96326" lon="-0.89262">
        <ele>109</ele>
        <time>2021-05-15T19:03:15Z</time>
      </trkpt>
      <trkpt lat="46.96323" lon="-0.8925">
        <ele>109</ele>
        <time>2021-05-15T19:03:27Z</time>
      </trkpt>
      <trkpt lat="46.96325" lon="-0.89226">
        <ele>110</ele>
        <time>2021-05-15T19:03:49Z</time>
      </trkpt>
      <trkpt lat="46.96328" lon="-0.89219">
        <ele>110</ele>
        <time>2021-05-15T19:03:57Z</time>
      </trkpt>
      <trkpt lat="46.96363" lon="-0.89219">
        <ele>112</ele>
        <time>2021-05-15T19:04:43Z</time>
      </trkpt>
      <trkpt lat="46.9637" lon="-0.89221">
        <ele>113</ele>
        <time>2021-05-15T19:04:53Z</time>
      </trkpt>
      <trkpt lat="46.96379" lon="-0.89231">
        <ele>113</ele>
        <time>2021-05-15T19:05:08Z</time>
      </trkpt>
      <trkpt lat="46.96432" lon="-0.89319">
        <ele>119</ele>
        <time>2021-05-15T19:06:55Z</time>
      </trkpt>
      <trkpt lat="46.9639" lon="-0.88744">
        <ele>144</ele>
        <time>2021-05-15T19:15:41Z</time>
      </trkpt>
    </trkseg>
  </trk>
</gpx>